OS226 / OE-LWQ 7700 Squawk Report (22nd of June, 2022)

Aircraft E195 Reg No. OE-LWQ Age 9 years old
Model Emb-195 Jet engines 2 First flight 13-08-12
Registered 16-02-17 Rollout N/A Delivered 07-09-12
Construction No. 19000565 Line No. N/A Series 200LR
ADSHEX 44082D Airline name Austrian Airlines Owner N/A
Airfield based Vienna-Schwechat~Vienna~OE First tracked N/A

Flight history for OE-LWQ

Route Flight No Date Playback
Warsaw Chopin (WAW) - Schwechat (VIE) OS626 2022-06-28 07:09:00
Schwechat (VIE) - Warsaw Chopin (WAW) OS625 2022-06-28 06:38:00
Arlanda (ARN) - Schwechat (VIE) OS316 2022-06-28 04:33:00
Schwechat (VIE) - Arlanda (ARN) OS315 2022-06-27 17:11:00
Krakow John Paul I (KRK) - Schwechat (VIE) OS598 2022-06-27 15:13:00
Schwechat (VIE) - Krakow John Paul I (KRK) OS597 2022-06-27 11:38:00
???? N/A 2022-06-27 09:51:00
???? N/A 2022-06-27 08:33:00
Innsbruck (INN) - Schwechat (VIE) OS1436 2022-06-27 07:00:00
Schwechat (VIE) - Nuremberg (NUE) OS135 2022-06-27 05:27:00
Landvetter (GOT) - Schwechat (VIE) OS326 2022-06-27 04:32:00
Schwechat (VIE) - Landvetter (GOT) OS325 2022-06-26 17:03:00
Krakow John Paul I (KRK) - Schwechat (VIE) OS598 2022-06-26 15:23:00
Schwechat (VIE) - Krakow John Paul I (KRK) OS597 2022-06-26 12:12:00
Bologna (BLQ) - Schwechat (VIE) OS548 2022-06-26 10:40:00
Schwechat (VIE) - Bologna (BLQ) OS547 2022-06-26 09:36:00
Budapest Ferenc Liszt (BUD) - Schwechat (VIE) OS718 2022-06-26 06:33:00
Schwechat (VIE) - Budapest Ferenc Liszt (BUD) OS717 2022-06-25 20:38:00
Munich Airport (MUC) - Schwechat (VIE) OS116 2022-06-25 19:53:00
Schwechat (VIE) - Munich Airport (MUC) OS115 2022-06-25 16:31:00
Time Lat Lon Altitude Heading Speed Vertical Rate
2022-06-22 10:31:50 GMT 48.119720 16.570923 0 25 0 0
2022-06-22 10:30:19 GMT 48.118198 16.574619 0 253 13 0
2022-06-22 10:29:51 GMT 48.117485 16.576344 0 343 18 0
2022-06-22 10:29:40 GMT 48.116299 16.576855 0 343 28 0
2022-06-22 10:29:36 GMT 48.115833 16.577049 0 343 28 0
2022-06-22 10:29:30 GMT 48.115208 16.577312 0 343 27 0
2022-06-22 10:29:23 GMT 48.114395 16.577648 0 343 25 0
2022-06-22 10:29:20 GMT 48.114079 16.577787 0 343 25 0
2022-06-22 10:29:12 GMT 48.113297 16.578123 0 343 23 0
2022-06-22 10:28:59 GMT 48.111973 16.578705 0 345 21 0
2022-06-22 10:28:52 GMT 48.111492 16.578880 0 343 20 0
2022-06-22 10:28:42 GMT 48.110447 16.579313 0 343 26 0
2022-06-22 10:28:03 GMT 48.105755 16.581308 0 345 25 0
2022-06-22 10:26:13 GMT 48.105034 16.584408 575 163 31 0
2022-06-22 10:26:01 GMT 48.107502 16.583368 575 164 116 -128
2022-06-22 10:25:54 GMT 48.109783 16.582455 575 164 116 -128
2022-06-22 10:25:46 GMT 48.112904 16.581045 575 164 116 -128
2022-06-22 10:25:40 GMT 48.115906 16.579811 575 164 125 -64
2022-06-22 10:25:34 GMT 48.119232 16.578440 600 164 124 -576
2022-06-22 10:25:29 GMT 48.124027 16.576397 725 164 125 -704
2022-06-22 10:25:26 GMT 48.124027 16.576397 725 164 125 -704
2022-06-22 10:25:22 GMT 48.126389 16.575417 775 164 127 -704
2022-06-22 10:25:19 GMT 48.130314 16.573792 825 164 128 -640
2022-06-22 10:25:14 GMT 48.130314 16.573792 850 164 127 -640
2022-06-22 10:25:11 GMT 48.132221 16.572947 900 163 129 -768
2022-06-22 10:25:08 GMT 48.133663 16.572313 900 163 128 -768
2022-06-22 10:25:04 GMT 48.136223 16.571257 950 163 126 -640
2022-06-22 10:25:00 GMT 48.138565 16.570198 1,000 164 128 -832
2022-06-22 10:24:57 GMT 48.140320 16.569496 1,050 164 129 -768
2022-06-22 10:24:53 GMT 48.143188 16.568275 1,075 164 129 -576
2022-06-22 10:24:50 GMT 48.144745 16.567595 1,125 164 132 -832
2022-06-22 10:24:47 GMT 48.145981 16.567108 1,150 164 132 -576
2022-06-22 10:24:43 GMT 48.148003 16.566256 1,175 164 131 -704
2022-06-22 10:24:40 GMT 48.150238 16.565254 1,225 163 130 -576
2022-06-22 10:24:36 GMT 48.153076 16.564074 1,275 164 125 -640
2022-06-22 10:24:32 GMT 48.154770 16.563332 1,300 164 125 -704
2022-06-22 10:24:29 GMT 48.156372 16.562714 1,375 164 126 -576
2022-06-22 10:24:24 GMT 48.159267 16.561466 1,400 163 126 -768
2022-06-22 10:24:21 GMT 48.160400 16.560974 1,425 163 126 -640
2022-06-22 10:24:17 GMT 48.163101 16.559776 1,450 163 126 -640
2022-06-22 10:24:14 GMT 48.164761 16.559071 1,525 164 127 -640
2022-06-22 10:24:11 GMT 48.167816 16.557804 1,550 164 127 -704
2022-06-22 10:24:08 GMT 48.167816 16.557804 1,600 163 127 -704
2022-06-22 10:24:05 GMT 48.169510 16.557047 1,600 163 127 -704
2022-06-22 10:24:02 GMT 48.171204 16.556326 1,650 163 126 -704
2022-06-22 10:23:58 GMT 48.174408 16.554918 1,700 164 126 -640
2022-06-22 10:23:53 GMT 48.177063 16.553791 1,725 163 125 -576
2022-06-22 10:23:50 GMT 48.177979 16.553438 1,750 163 126 -704
2022-06-22 10:23:47 GMT 48.179935 16.552637 1,775 164 127 -768
2022-06-22 10:23:42 GMT 48.182556 16.551537 1,900 164 132 -960
2022-06-22 10:23:39 GMT 48.185440 16.550268 1,925 163 135 -768
2022-06-22 10:23:35 GMT 48.187527 16.549385 1,975 164 139 -512
2022-06-22 10:23:32 GMT 48.189148 16.548719 2,000 164 142 -576
2022-06-22 10:23:28 GMT 48.191391 16.547733 2,000 164 143 -576
2022-06-22 10:23:22 GMT 48.195511 16.546043 2,100 164 147 -704
2022-06-22 10:23:18 GMT 48.197937 16.544989 2,225 164 153 -896
2022-06-22 10:23:13 GMT 48.201862 16.543314 2,250 164 157 -832
2022-06-22 10:23:10 GMT 48.203541 16.542664 2,275 164 159 -1088
2022-06-22 10:23:07 GMT 48.205719 16.541748 2,325 164 160 -1152
2022-06-22 10:23:02 GMT 48.209450 16.540207 2,425 164 164 -768
2022-06-22 10:22:59 GMT 48.211212 16.539425 2,450 164 164 -768
2022-06-22 10:22:56 GMT 48.213127 16.538616 2,475 164 165 -640
2022-06-22 10:22:53 GMT 48.218483 16.536303 2,550 164 169 -1088
2022-06-22 10:22:50 GMT 48.218483 16.536303 2,575 164 170 -1152
2022-06-22 10:22:47 GMT 48.219925 16.535725 2,600 164 172 -1152
2022-06-22 10:22:44 GMT 48.222198 16.534777 2,650 164 174 -1024
2022-06-22 10:22:41 GMT 48.224953 16.533556 2,700 164 178 -960
2022-06-22 10:22:38 GMT 48.227692 16.532381 2,850 164 182 -1152
2022-06-22 10:22:35 GMT 48.230446 16.531244 2,850 164 182 -1152
2022-06-22 10:22:32 GMT 48.232498 16.530338 2,900 163 183 -1024
2022-06-22 10:22:29 GMT 48.234680 16.529436 2,925 163 183 -896
2022-06-22 10:22:26 GMT 48.237122 16.528366 2,975 164 182 -1024
2022-06-22 10:22:23 GMT 48.239571 16.527342 3,025 164 182 -1088
2022-06-22 10:22:20 GMT 48.242039 16.526329 3,075 164 182 -1088
2022-06-22 10:22:16 GMT 48.245590 16.524776 3,150 164 181 -960
2022-06-22 10:22:13 GMT 48.247513 16.524000 3,200 164 180 -960
2022-06-22 10:22:10 GMT 48.249950 16.522932 3,275 164 180 -960
2022-06-22 10:22:07 GMT 48.252419 16.521919 3,325 164 180 -960
2022-06-22 10:22:04 GMT 48.254929 16.520832 3,350 164 181 -1024
2022-06-22 10:22:01 GMT 48.258469 16.519318 3,400 164 179 -960
2022-06-22 10:21:56 GMT 48.261703 16.518015 3,450 164 181 -1024
2022-06-22 10:21:51 GMT 48.266060 16.516136 3,550 164 182 -896
2022-06-22 10:21:47 GMT 48.269165 16.514847 3,625 164 182 -960
2022-06-22 10:21:44 GMT 48.271271 16.513897 3,650 163 183 -960
2022-06-22 10:21:41 GMT 48.274704 16.512451 3,700 164 185 -960
2022-06-22 10:21:38 GMT 48.276352 16.511747 3,750 164 185 -832
2022-06-22 10:21:35 GMT 48.278320 16.510902 3,750 164 185 -832
2022-06-22 10:21:32 GMT 48.282120 16.509272 3,825 163 187 -704
2022-06-22 10:21:29 GMT 48.283470 16.508694 3,850 164 186 -768
2022-06-22 10:21:25 GMT 48.287148 16.507103 3,900 164 185 -704
2022-06-22 10:21:20 GMT 48.291615 16.505297 3,925 164 186 -576
2022-06-22 10:21:16 GMT 48.294083 16.504211 3,950 164 186 -576
2022-06-22 10:21:13 GMT 48.296539 16.503155 3,950 164 187 192
2022-06-22 10:21:09 GMT 48.299717 16.501825 3,950 164 188 -128
2022-06-22 10:21:06 GMT 48.303314 16.500338 3,950 164 194 -64
2022-06-22 10:21:03 GMT 48.305008 16.499634 3,950 164 196 64
2022-06-22 10:20:59 GMT 48.308842 16.497995 3,950 164 199 -192
2022-06-22 10:20:55 GMT 48.312469 16.496466 3,975 164 217 0
2022-06-22 10:20:52 GMT 48.314800 16.495466 3,975 164 202 -192
2022-06-22 10:20:49 GMT 48.317917 16.494141 3,975 164 203 -128
2022-06-22 10:20:45 GMT 48.321167 16.492804 3,975 164 204 -64
2022-06-22 10:20:39 GMT 48.327972 16.489901 3,975 164 207 128
2022-06-22 10:20:35 GMT 48.330780 16.488718 3,975 164 212 128
2022-06-22 10:20:30 GMT 48.335140 16.486864 3,975 164 215 0
2022-06-22 10:20:27 GMT 48.338169 16.485563 3,975 164 217 -64
2022-06-22 10:20:24 GMT 48.341125 16.484352 3,975 164 217 -128
2022-06-22 10:20:21 GMT 48.343826 16.483225 3,975 164 216 192
2022-06-22 10:20:18 GMT 48.350506 16.480433 3,975 164 215 64
2022-06-22 10:20:15 GMT 48.350506 16.480433 3,975 164 215 -384
2022-06-22 10:20:10 GMT 48.354088 16.478914 3,975 164 215 128
2022-06-22 10:20:07 GMT 48.357346 16.477613 3,975 164 216 128
2022-06-22 10:20:04 GMT 48.360233 16.476383 3,975 164 216 192
2022-06-22 10:19:58 GMT 48.366989 16.473576 3,975 164 218 0
2022-06-22 10:19:54 GMT 48.370335 16.472263 3,975 164 225 -64
2022-06-22 10:19:50 GMT 48.373592 16.470892 3,975 164 223 -64
2022-06-22 10:19:47 GMT 48.377132 16.469444 4,425 164 226 -64
2022-06-22 10:19:43 GMT 48.381042 16.467873 3,975 165 228 -128
2022-06-22 10:19:40 GMT 48.384487 16.466482 3,975 164 231 -1024
2022-06-22 10:19:37 GMT 48.387634 16.465197 4,025 164 231 -1024
2022-06-22 10:19:34 GMT 48.391251 16.463717 4,050 164 231 -896
2022-06-22 10:19:28 GMT 48.400223 16.459976 4,150 163 232 -832
2022-06-22 10:19:25 GMT 48.400223 16.459976 4,175 163 232 -1024
2022-06-22 10:19:21 GMT 48.410091 16.455496 4,275 162 232 -1024
2022-06-22 10:19:16 GMT 48.410091 16.455496 4,325 162 231 -1024
2022-06-22 10:19:13 GMT 48.412262 16.454491 4,350 161 232 -896
2022-06-22 10:19:08 GMT 48.417770 16.451736 4,450 161 233 -1024
2022-06-22 10:19:05 GMT 48.420238 16.450508 4,500 162 234 -960
2022-06-22 10:19:02 GMT 48.422798 16.449280 4,525 162 233 -896
2022-06-22 10:18:59 GMT 48.426430 16.447689 4,575 165 233 -960
2022-06-22 10:18:56 GMT 48.429874 16.446388 4,625 171 231 -1152
2022-06-22 10:18:52 GMT 48.433044 16.445547 4,700 172 233 -1280
2022-06-22 10:18:47 GMT 48.438862 16.445015 4,825 183 233 -1408
2022-06-22 10:18:43 GMT 48.448059 16.447166 5,100 193 233 -1216
2022-06-22 10:18:38 GMT 48.448059 16.447166 5,025 193 233 -1216
2022-06-22 10:18:35 GMT 48.453323 16.448929 5,100 193 233 -1216
2022-06-22 10:18:32 GMT 48.454788 16.449421 5,125 193 233 -1152
2022-06-22 10:18:29 GMT 48.462555 16.451954 5,225 193 234 -1152
2022-06-22 10:18:25 GMT 48.462555 16.451954 5,275 193 234 -1152
2022-06-22 10:18:22 GMT 48.465820 16.452942 5,325 193 235 -1088
2022-06-22 10:18:18 GMT 48.469353 16.454123 5,375 193 235 -1088
2022-06-22 10:18:15 GMT 48.473450 16.455423 5,450 192 236 -960
2022-06-22 10:18:12 GMT 48.476616 16.456434 5,500 192 237 -960
2022-06-22 10:18:08 GMT 48.483925 16.458748 5,575 192 238 -832
2022-06-22 10:18:05 GMT 48.483925 16.458748 5,600 192 240 -896
2022-06-22 10:18:02 GMT 48.487610 16.459913 5,650 192 241 -960
2022-06-22 10:17:57 GMT 48.492004 16.461323 5,725 192 242 -832
2022-06-22 10:17:54 GMT 48.495987 16.462521 5,775 192 243 -896
2022-06-22 10:17:51 GMT 48.503197 16.464746 6,175 192 244 -896
2022-06-22 10:17:48 GMT 48.503197 16.464746 5,850 192 244 -960
2022-06-22 10:17:45 GMT 48.506359 16.465687 5,900 192 245 -960
2022-06-22 10:17:41 GMT 48.510269 16.466887 5,950 192 246 -960
2022-06-22 10:17:37 GMT 48.514618 16.468224 6,025 192 248 -896
2022-06-22 10:17:34 GMT 48.518372 16.469351 6,050 192 249 -896
2022-06-22 10:17:30 GMT 48.521988 16.470478 6,100 193 250 -960
2022-06-22 10:17:27 GMT 48.530502 16.473436 6,175 194 251 -1024
2022-06-22 10:17:24 GMT 48.530502 16.473436 6,225 195 251 -1024
2022-06-22 10:17:20 GMT 48.533409 16.474649 6,275 196 252 -1152
2022-06-22 10:17:15 GMT 48.538761 16.477468 7,275 239 238 -1408
2022-06-22 10:17:11 GMT 48.544189 16.482168 6,550 217 247 -1664
2022-06-22 10:17:06 GMT 48.550167 16.490768 6,675 239 248 -1600
2022-06-22 10:17:03 GMT 48.550167 16.490768 6,800 237 239 -1600
2022-06-22 10:17:00 GMT 48.551880 16.494352 6,825 237 239 -1600
2022-06-22 10:16:56 GMT 48.556171 16.505007 7,025 239 238 -1408
2022-06-22 10:16:53 GMT 48.556171 16.505007 7,050 240 238 -1472
2022-06-22 10:16:50 GMT 48.557755 16.508982 7,075 240 237 -1472
2022-06-22 10:16:45 GMT 48.560268 16.515270 7,225 239 238 -1408
2022-06-22 10:16:42 GMT 48.562317 16.520403 7,250 239 238 -1344
2022-06-22 10:16:39 GMT 48.566071 16.529705 7,325 239 240 -896
2022-06-22 10:16:35 GMT 48.566071 16.529705 7,400 239 238 -1280
2022-06-22 10:16:32 GMT 48.567764 16.533991 7,500 239 238 -1152
2022-06-22 10:16:28 GMT 48.570278 16.540207 7,550 239 240 -896
2022-06-22 10:16:25 GMT 48.571674 16.543674 7,675 239 240 -896
2022-06-22 10:16:22 GMT 48.573956 16.549385 7,650 239 241 -640
2022-06-22 10:16:19 GMT 48.575119 16.552204 7,650 239 242 -640
2022-06-22 10:16:15 GMT 48.579987 16.564142 7,725 239 246 -640
2022-06-22 10:16:12 GMT 48.579987 16.564142 7,750 239 246 -704
2022-06-22 10:16:08 GMT 48.581776 16.568539 7,800 239 247 -896
2022-06-22 10:16:05 GMT 48.583965 16.573889 7,925 239 248 -1600
2022-06-22 10:15:59 GMT 48.587547 16.582706 8,025 239 248 -1600
2022-06-22 10:15:54 GMT 48.589924 16.588633 8,275 239 245 -1664
2022-06-22 10:15:51 GMT 48.591934 16.593651 8,225 239 246 -1664
2022-06-22 10:15:48 GMT 48.593739 16.598028 8,800 239 245 -1664
2022-06-22 10:15:45 GMT 48.595734 16.603018 8,425 239 245 -1664
2022-06-22 10:15:42 GMT 48.597881 16.608292 8,500 239 245 -1664
2022-06-22 10:15:39 GMT 48.599533 16.612385 8,550 239 244 -1664
2022-06-22 10:15:33 GMT 48.603516 16.622314 8,750 239 243 -1664
2022-06-22 10:15:28 GMT 48.605518 16.627230 8,875 239 242 -1664
2022-06-22 10:15:21 GMT 48.609833 16.637808 9,100 237 241 -1728
2022-06-22 10:15:18 GMT 48.611664 16.641973 9,125 236 241 -1728
2022-06-22 10:15:15 GMT 48.613991 16.646961 9,225 234 242 -1536
2022-06-22 10:15:12 GMT 48.615387 16.649708 9,275 232 242 -1472
2022-06-22 10:15:08 GMT 48.618786 16.655201 9,400 219 248 -1664
2022-06-22 10:15:01 GMT 48.629074 16.664597 9,650 203 256 -1600
2022-06-22 10:14:57 GMT 48.629074 16.664597 9,675 201 257 -1600
2022-06-22 10:14:54 GMT 48.633408 16.666540 9,800 188 264 -1600
2022-06-22 10:14:51 GMT 48.638168 16.667599 9,875 185 265 -1472
2022-06-22 10:14:48 GMT 48.641190 16.667740 9,925 178 268 -960
2022-06-22 10:14:43 GMT 48.649929 16.666260 9,975 163 275 -64
2022-06-22 10:14:40 GMT 48.649929 16.666260 9,975 163 275 -64
2022-06-22 10:14:37 GMT 48.653793 16.664524 9,975 159 276 -64
2022-06-22 10:14:34 GMT 48.657898 16.661964 9,975 152 280 0
2022-06-22 10:14:30 GMT 48.662170 16.658237 9,975 143 283 0
2022-06-22 10:14:27 GMT 48.665359 16.654570 9,975 139 284 0
2022-06-22 10:14:22 GMT 48.669479 16.648441 9,975 118 290 0
2022-06-22 10:14:19 GMT 48.672924 16.641178 9,975 118 290 0
2022-06-22 10:14:16 GMT 48.674194 16.637667 9,975 115 290 0
2022-06-22 10:14:11 GMT 48.676712 16.627878 9,975 84 286 64
2022-06-22 10:14:07 GMT 48.677906 16.618702 9,975 96 289 0
2022-06-22 10:14:03 GMT 48.678047 16.610605 9,975 75 283 0
2022-06-22 10:13:59 GMT 48.677765 16.605553 9,975 82 285 64
2022-06-22 10:13:56 GMT 48.676743 16.598101 9,975 74 282 0
2022-06-22 10:13:52 GMT 48.675293 16.591820 9,975 62 277 0
2022-06-22 10:13:49 GMT 48.673855 16.587259 9,975 58 275 -64
2022-06-22 10:13:46 GMT 48.671310 16.581116 9,975 53 273 -64
2022-06-22 10:13:42 GMT 48.667896 16.574972 9,975 43 267 -64
2022-06-22 10:13:39 GMT 48.665543 16.571608 9,975 34 262 -64
2022-06-22 10:13:36 GMT 48.662216 16.567816 9,975 33 262 0
2022-06-22 10:13:31 GMT 48.657394 16.563721 9,975 24 257 64
2022-06-22 10:13:28 GMT 48.653885 16.561527 9,975 17 253 0
2022-06-22 10:13:25 GMT 48.650757 16.560129 9,975 13 251 64
2022-06-22 10:13:20 GMT 48.645088 16.558783 9,975 3 245 64
2022-06-22 10:13:17 GMT 48.641235 16.558722 9,975 357 242 0
2022-06-22 10:13:14 GMT 48.638336 16.558998 9,975 357 242 0
2022-06-22 10:13:10 GMT 48.631119 16.560904 9,975 348 238 0
2022-06-22 10:13:07 GMT 48.631119 16.560904 9,975 349 238 0
2022-06-22 10:13:04 GMT 48.626282 16.562468 9,975 348 238 0
2022-06-22 10:12:59 GMT 48.622101 16.563791 9,975 348 238 0
2022-06-22 10:12:56 GMT 48.618412 16.564999 9,975 348 238 -64
2022-06-22 10:12:52 GMT 48.613037 16.566750 9,975 348 238 0
2022-06-22 10:12:49 GMT 48.610886 16.567383 9,975 348 238 0
2022-06-22 10:12:45 GMT 48.605934 16.568974 9,975 348 238 0
2022-06-22 10:12:41 GMT 48.602692 16.570059 9,975 349 237 0
2022-06-22 10:12:38 GMT 48.599464 16.571070 9,975 348 237 64
2022-06-22 10:12:35 GMT 48.595367 16.572384 9,975 349 237 0
2022-06-22 10:12:29 GMT 48.589371 16.574284 9,975 348 237 0
2022-06-22 10:12:26 GMT 48.581589 16.576820 9,975 349 236 64
2022-06-22 10:12:22 GMT 48.581589 16.576820 9,975 349 236 64
2022-06-22 10:12:19 GMT 48.579216 16.577574 9,975 349 236 0
2022-06-22 10:12:16 GMT 48.575397 16.578802 9,975 349 236 64
2022-06-22 10:12:13 GMT 48.573441 16.579426 9,975 349 235 64
2022-06-22 10:12:10 GMT 48.569019 16.580828 9,975 349 236 64
2022-06-22 10:12:07 GMT 48.565109 16.582054 9,975 349 235 -64
2022-06-22 10:12:04 GMT 48.562595 16.582850 9,975 349 235 -64
2022-06-22 10:11:58 GMT 48.556637 16.584730 9,975 348 235 -64
2022-06-22 10:11:55 GMT 48.550213 16.586969 9,975 348 236 -64
2022-06-22 10:11:52 GMT 48.550213 16.586969 9,975 346 235 64
2022-06-22 10:11:49 GMT 48.546955 16.588488 9,975 339 233 0
2022-06-22 10:11:46 GMT 48.543697 16.590511 9,975 335 231 64
2022-06-22 10:11:43 GMT 48.541416 16.592247 9,975 305 225 64
2022-06-22 10:11:38 GMT 48.536957 16.596680 9,975 322 228 -64
2022-06-22 10:11:33 GMT 48.532803 16.602293 9,975 305 225 64
2022-06-22 10:11:26 GMT 48.528030 16.611610 9,975 299 225 64
2022-06-22 10:11:23 GMT 48.526611 16.615341 9,975 297 225 0
2022-06-22 10:11:18 GMT 48.524643 16.622456 9,975 244 235 0
2022-06-22 10:11:15 GMT 48.523865 16.626362 9,975 284 224 -64
2022-06-22 10:11:12 GMT 48.523178 16.631540 9,975 270 227 0
2022-06-22 10:11:07 GMT 48.522720 16.639076 9,975 271 227 0
2022-06-22 10:11:02 GMT 48.522949 16.646683 9,975 263 228 -64
2022-06-22 10:10:58 GMT 48.524097 16.655128 9,975 253 231 -64
2022-06-22 10:10:55 GMT 48.524704 16.658237 9,975 249 233 -64
2022-06-22 10:10:50 GMT 48.527168 16.666550 9,975 236 238 0
2022-06-22 10:10:45 GMT 48.530243 16.673849 9,975 233 239 -64
2022-06-22 10:10:42 GMT 48.531639 16.676451 9,975 229 242 -128
2022-06-22 10:10:39 GMT 48.533615 16.679710 9,975 225 244 -128
2022-06-22 10:10:35 GMT 48.537971 16.685268 9,975 215 250 -64
2022-06-22 10:10:32 GMT 48.540668 16.687943 9,975 210 253 0
2022-06-22 10:10:27 GMT 48.545105 16.691261 9,975 198 259 64
2022-06-22 10:10:23 GMT 48.549702 16.693363 9,975 193 261 128
2022-06-22 10:10:20 GMT 48.553070 16.694220 9,975 188 265 192
2022-06-22 10:10:17 GMT 48.562550 16.693726 9,975 173 272 -64
2022-06-22 10:10:13 GMT 48.562550 16.693726 9,975 170 273 -64
2022-06-22 10:10:10 GMT 48.565613 16.692881 9,975 169 274 -64
2022-06-22 10:10:07 GMT 48.569859 16.691557 9,975 168 274 0
2022-06-22 10:10:04 GMT 48.575397 16.689823 9,975 168 274 0
2022-06-22 10:10:01 GMT 48.577606 16.689077 9,975 168 274 64
2022-06-22 10:09:57 GMT 48.583359 16.687292 9,975 168 274 0
2022-06-22 10:09:54 GMT 48.587082 16.686049 9,975 168 274 0
2022-06-22 10:09:51 GMT 48.590561 16.684994 9,975 167 273 0
2022-06-22 10:09:47 GMT 48.595459 16.683372 9,975 168 270 64
2022-06-22 10:09:44 GMT 48.598255 16.682522 9,975 167 273 64
2022-06-22 10:09:41 GMT 48.602463 16.681120 9,975 167 273 64
2022-06-22 10:09:38 GMT 48.605610 16.680138 9,975 167 272 0
2022-06-22 10:09:35 GMT 48.610638 16.678547 9,975 167 272 0
2022-06-22 10:09:32 GMT 48.613010 16.677752 9,975 167 272 0
2022-06-22 10:09:29 GMT 48.616791 16.676542 9,975 167 272 0
2022-06-22 10:09:26 GMT 48.620461 16.675367 9,975 167 271 64
2022-06-22 10:09:23 GMT 48.625767 16.673632 9,950 168 269 64
2022-06-22 10:09:20 GMT 48.627548 16.673092 9,950 168 270 64
2022-06-22 10:09:17 GMT 48.632492 16.671541 9,950 168 270 0
2022-06-22 10:09:13 GMT 48.637894 16.669781 9,975 168 271 -576
2022-06-22 10:09:08 GMT 48.643040 16.668211 10,000 168 271 -832
2022-06-22 10:09:04 GMT 48.647926 16.666693 10,075 168 270 -1024
2022-06-22 10:09:01 GMT 48.651047 16.665682 10,100 166 270 -896
2022-06-22 10:08:58 GMT 48.654465 16.664429 10,150 163 273 -896
2022-06-22 10:08:55 GMT 48.658169 16.662645 10,225 152 279 -896
2022-06-22 10:08:52 GMT 48.665569 16.657225 10,250 152 279 -896
2022-06-22 10:08:49 GMT 48.665569 16.657225 10,325 143 283 -896
2022-06-22 10:08:45 GMT 48.669853 16.652672 10,975 31 265 -896
2022-06-22 10:08:42 GMT 48.673855 16.646889 10,475 130 288 -896
2022-06-22 10:08:38 GMT 48.676136 16.642914 10,475 125 289 -896
2022-06-22 10:08:35 GMT 48.678452 16.637949 10,525 116 291 -896
2022-06-22 10:08:32 GMT 48.680653 16.631927 10,575 104 292 -896
2022-06-22 10:08:29 GMT 48.682514 16.625134 10,600 106 292 -896
2022-06-22 10:08:25 GMT 48.683624 16.619217 10,700 91 291 -832
2022-06-22 10:08:22 GMT 48.684402 16.612806 10,725 88 291 -896
2022-06-22 10:08:19 GMT 48.684704 16.606703 10,725 90 291 -896
2022-06-22 10:08:16 GMT 48.684608 16.601860 10,825 77 288 -896
2022-06-22 10:08:13 GMT 48.683956 16.593838 10,825 77 288 -896
2022-06-22 10:08:09 GMT 48.683029 16.588158 10,850 72 285 -896
2022-06-22 10:08:06 GMT 48.681026 16.580105 10,925 64 283 -896
2022-06-22 10:08:02 GMT 48.679001 16.574215 11,000 55 279 -832
2022-06-22 10:07:59 GMT 48.676346 16.568369 11,025 51 277 -896
2022-06-22 10:07:56 GMT 48.674377 16.564848 11,050 49 276 -896
2022-06-22 10:07:53 GMT 48.671715 16.560734 11,100 42 271 -832
2022-06-22 10:07:48 GMT 48.667648 16.555763 11,150 35 268 -832
2022-06-22 10:07:46 GMT 48.665337 16.553505 11,200 26 262 -896
2022-06-22 10:07:42 GMT 48.655884 16.547241 11,375 7 250 -832
2022-06-22 10:07:38 GMT 48.655884 16.547241 11,375 7 250 -832
2022-06-22 10:07:35 GMT 48.651901 16.545761 11,375 7 250 -832
2022-06-22 10:07:32 GMT 48.647736 16.544916 11,475 3 247 -832
2022-06-22 10:07:29 GMT 48.640869 16.544989 11,475 350 241 -960
2022-06-22 10:07:25 GMT 48.640869 16.544989 11,650 350 241 -960
2022-06-22 10:07:22 GMT 48.638214 16.545551 11,650 350 241 -960
2022-06-22 10:07:19 GMT 48.634277 16.546606 11,650 348 240 -960
2022-06-22 10:07:16 GMT 48.631866 16.547361 11,650 348 240 -960
2022-06-22 10:07:13 GMT 48.628235 16.548578 11,775 348 240 -832
2022-06-22 10:07:10 GMT 48.623581 16.550035 11,775 348 239 -896
2022-06-22 10:07:06 GMT 48.620136 16.551121 11,825 348 239 -896
2022-06-22 10:07:03 GMT 48.613312 16.553299 11,900 348 239 -896
2022-06-22 10:07:00 GMT 48.613312 16.553299 11,900 348 239 -896
2022-06-22 10:06:57 GMT 48.611710 16.553862 11,900 348 239 -896
2022-06-22 10:06:56 GMT 48.610172 16.554300 11,925 349 239 -896
2022-06-22 10:06:53 GMT 48.606400 16.555552 12,125 349 239 -896
2022-06-22 10:06:49 GMT 48.601093 16.557192 12,125 349 239 -896
2022-06-22 10:06:46 GMT 48.598022 16.558203 12,125 349 239 -896
2022-06-22 10:06:43 GMT 48.596054 16.558790 12,125 349 239 -896
2022-06-22 10:06:39 GMT 48.591751 16.560200 12,175 349 239 -896
2022-06-22 10:06:37 GMT 48.586292 16.561890 12,250 348 239 -896
2022-06-22 10:06:34 GMT 48.584793 16.562384 12,275 348 239 -896
2022-06-22 10:06:33 GMT 48.584793 16.562384 12,275 348 239 -896
2022-06-22 10:06:31 GMT 48.581772 16.563370 12,325 349 239 -896
2022-06-22 10:06:30 GMT 48.581772 16.563370 12,325 349 239 -896
2022-06-22 10:06:27 GMT 48.578983 16.564276 12,350 349 239 -896
2022-06-22 10:06:24 GMT 48.575443 16.565359 12,450 349 240 -960
2022-06-22 10:06:21 GMT 48.572205 16.566397 12,450 349 240 -960
2022-06-22 10:06:20 GMT 48.570698 16.566877 12,450 349 240 -960
2022-06-22 10:06:16 GMT 48.566788 16.568106 12,525 349 240 -960
2022-06-22 10:06:13 GMT 48.563095 16.569214 12,625 349 240 -960
2022-06-22 10:06:10 GMT 48.560268 16.570057 12,625 349 240 -960
2022-06-22 10:06:07 GMT 48.555893 16.571430 12,675 349 240 -960
2022-06-22 10:06:04 GMT 48.553024 16.572313 12,700 349 240 -960
2022-06-22 10:06:01 GMT 48.549328 16.573454 12,900 337 236 -960
2022-06-22 10:05:57 GMT 48.542160 16.576563 12,900 337 236 -960
2022-06-22 10:05:54 GMT 48.542160 16.576563 12,900 337 236 -960
2022-06-22 10:05:51 GMT 48.539108 16.578510 12,900 334 236 -960
2022-06-22 10:05:46 GMT 48.532246 16.584730 12,975 322 232 -128
2022-06-22 10:05:43 GMT 48.532246 16.584730 13,000 322 232 -128
2022-06-22 10:05:40 GMT 48.530045 16.587313 13,000 301 229 64
2022-06-22 10:05:37 GMT 48.526798 16.591812 13,000 301 229 64
2022-06-22 10:05:34 GMT 48.525101 16.594425 13,000 301 229 64
2022-06-22 10:05:31 GMT 48.522446 16.599426 13,000 301 229 64
2022-06-22 10:05:26 GMT 48.520065 16.604708 13,000 301 229 64
2022-06-22 10:05:23 GMT 48.518555 16.608582 13,000 293 229 0
2022-06-22 10:05:20 GMT 48.516907 16.613724 13,000 293 229 0
2022-06-22 10:05:17 GMT 48.515717 16.618050 13,000 278 231 64
2022-06-22 10:05:14 GMT 48.514553 16.623037 13,000 278 231 64
2022-06-22 10:05:11 GMT 48.513794 16.627033 13,000 278 231 64
2022-06-22 10:05:08 GMT 48.513107 16.631258 13,000 278 231 64
2022-06-22 10:05:05 GMT 48.512413 16.635975 12,975 278 231 64
2022-06-22 10:05:02 GMT 48.511669 16.642986 12,975 278 231 64
2022-06-22 10:04:58 GMT 48.511154 16.648697 12,975 277 231 0
2022-06-22 10:04:55 GMT 48.510876 16.652527 13,000 221 262 0
2022-06-22 10:04:52 GMT 48.510643 16.655851 13,000 221 262 0
2022-06-22 10:04:47 GMT 48.509995 16.669710 13,000 258 239 -64
2022-06-22 10:04:44 GMT 48.509995 16.669710 13,000 258 239 -64
2022-06-22 10:04:41 GMT 48.510223 16.675295 13,000 258 239 -64
2022-06-22 10:04:38 GMT 48.510784 16.679848 13,000 231 255 -64
2022-06-22 10:04:35 GMT 48.512039 16.685558 13,000 231 255 -64
2022-06-22 10:04:31 GMT 48.513435 16.689823 13,000 231 255 -64
2022-06-22 10:04:28 GMT 48.515350 16.694220 13,000 231 255 -64
2022-06-22 10:04:25 GMT 48.521164 16.702881 13,000 221 262 0
2022-06-22 10:04:21 GMT 48.521164 16.702881 13,000 213 267 0
2022-06-22 10:04:17 GMT 48.526054 16.707458 13,000 203 274 -64
2022-06-22 10:04:14 GMT 48.530289 16.710060 13,000 197 278 -64
2022-06-22 10:04:11 GMT 48.532661 16.711145 13,000 195 279 0
2022-06-22 10:04:08 GMT 48.536900 16.712301 13,000 179 289 -64
2022-06-22 10:04:04 GMT 48.542999 16.712664 13,025 171 294 -64
2022-06-22 10:04:01 GMT 48.547001 16.712084 13,025 171 294 -64
2022-06-22 10:03:56 GMT 48.552261 16.710278 13,050 146 305 -960
2022-06-22 10:03:53 GMT 48.558289 16.706614 13,150 146 305 -960
2022-06-22 10:03:49 GMT 48.561478 16.703917 13,150 146 305 -960
2022-06-22 10:03:46 GMT 48.565521 16.699923 13,300 144 306 -1024
2022-06-22 10:03:42 GMT 48.570465 16.694571 13,300 144 306 -1024
2022-06-22 10:03:38 GMT 48.574631 16.689993 13,300 143 305 -960
2022-06-22 10:03:36 GMT 48.576237 16.688232 13,325 143 305 -960
2022-06-22 10:03:35 GMT 48.580170 16.683935 13,425 143 305 -960
2022-06-22 10:03:33 GMT 48.580170 16.683935 13,425 143 303 -960
2022-06-22 10:03:30 GMT 48.583126 16.680643 13,425 143 303 -960
2022-06-22 10:03:28 GMT 48.586075 16.677387 13,575 143 303 -960
2022-06-22 10:03:24 GMT 48.589970 16.673126 13,575 143 303 -960
2022-06-22 10:03:21 GMT 48.594532 16.668139 13,575 143 303 -960
2022-06-22 10:03:18 GMT 48.598755 16.663513 20,000 143 303 -960
2022-06-22 10:03:14 GMT 48.603374 16.658381 20,000 143 308 -1024
2022-06-22 10:03:10 GMT 48.605888 16.655636 13,725 143 303 -1024
2022-06-22 10:03:06 GMT 48.611290 16.649635 13,825 143 304 -960
2022-06-22 10:03:03 GMT 48.614269 16.646311 13,900 143 304 -960
2022-06-22 10:03:00 GMT 48.617203 16.643131 13,900 143 307 -960
2022-06-22 10:02:57 GMT 48.621250 16.638649 14,000 143 307 -960
2022-06-22 10:02:53 GMT 48.625908 16.633518 14,000 143 307 -960
2022-06-22 10:02:50 GMT 48.628654 16.630482 14,050 143 308 -1024
2022-06-22 10:02:47 GMT 48.632126 16.626680 14,100 143 309 -1024
2022-06-22 10:02:44 GMT 48.635590 16.622820 14,150 143 309 -1024
2022-06-22 10:02:42 GMT 48.638382 16.619713 14,200 143 312 -960
2022-06-22 10:02:40 GMT 48.640663 16.617184 14,250 143 312 -960
2022-06-22 10:02:37 GMT 48.645321 16.611979 14,400 143 313 -960
2022-06-22 10:02:32 GMT 48.649929 16.606918 14,400 143 314 -960
2022-06-22 10:02:29 GMT 48.653744 16.602655 14,400 143 316 -1024
2022-06-22 10:02:26 GMT 48.656845 16.599285 14,450 143 316 -1024
2022-06-22 10:02:23 GMT 48.661800 16.593763 14,550 143 318 -960
2022-06-22 10:02:20 GMT 48.664639 16.590656 14,600 143 319 -1024
2022-06-22 10:02:16 GMT 48.668922 16.585886 14,600 143 319 -1024
2022-06-22 10:02:13 GMT 48.677307 16.576679 14,700 143 327 -960
2022-06-22 10:02:10 GMT 48.680466 16.573166 14,850 143 327 -960
2022-06-22 10:02:06 GMT 48.686508 16.566467 14,850 143 327 -960
2022-06-22 10:02:02 GMT 48.686508 16.566467 14,850 143 327 -960
2022-06-22 10:02:00 GMT 48.688934 16.563791 14,875 143 327 -960
2022-06-22 10:01:59 GMT 48.690147 16.562395 14,900 143 327 -960
2022-06-22 10:01:56 GMT 48.693081 16.559143 14,925 143 329 -960
2022-06-22 10:01:55 GMT 48.694992 16.557047 14,950 143 329 -960
2022-06-22 10:01:52 GMT 48.698387 16.553289 15,025 143 329 -960
2022-06-22 10:01:49 GMT 48.700855 16.550543 15,025 143 330 -960
2022-06-22 10:01:48 GMT 48.706863 16.543892 15,075 143 332 -960
2022-06-22 10:01:46 GMT 48.711044 16.539213 15,175 143 333 -960
2022-06-22 10:01:41 GMT 48.711044 16.539213 15,175 143 334 -960
2022-06-22 10:01:39 GMT 48.712868 16.537243 15,200 143 334 -960
2022-06-22 10:01:38 GMT 48.716080 16.533649 15,225 143 336 -960
2022-06-22 10:01:35 GMT 48.719101 16.530338 15,275 143 337 -960
2022-06-22 10:01:32 GMT 48.722408 16.526617 15,325 143 339 -960
2022-06-22 10:01:29 GMT 48.728302 16.520128 15,425 143 343 -1024
2022-06-22 10:01:26 GMT 48.730091 16.518089 15,425 143 343 -1024
2022-06-22 10:01:24 GMT 48.737492 16.509920 15,550 143 343 -1024
2022-06-22 10:01:21 GMT 48.737492 16.509920 15,550 143 347 -960
2022-06-22 10:01:18 GMT 48.741356 16.505585 15,550 143 347 -960
2022-06-22 10:01:17 GMT 48.742584 16.504211 15,575 143 347 -960
2022-06-22 10:01:15 GMT 48.745102 16.501394 15,650 143 347 -960
2022-06-22 10:01:12 GMT 48.749084 16.496984 15,650 143 349 -960
2022-06-22 10:01:10 GMT 48.754074 16.491465 15,700 143 351 -960
2022-06-22 10:01:05 GMT 48.758743 16.486322 16,100 143 353 -960
2022-06-22 10:01:01 GMT 48.763000 16.481535 16,100 143 354 -1344
2022-06-22 10:00:58 GMT 48.772018 16.471535 16,100 143 357 -1280
2022-06-22 10:00:55 GMT 48.774673 16.468576 16,100 143 357 -1280
2022-06-22 10:00:52 GMT 48.774673 16.468576 16,100 143 357 -1280
2022-06-22 10:00:48 GMT 48.781586 16.460899 16,125 143 357 -1344
2022-06-22 10:00:45 GMT 48.784149 16.458014 16,350 143 358 -1344
2022-06-22 10:00:42 GMT 48.788235 16.453545 16,350 143 359 -1344
2022-06-22 10:00:39 GMT 48.797516 16.443153 16,350 143 360 -1344
2022-06-22 10:00:36 GMT 48.797516 16.443153 16,350 143 360 -1344
2022-06-22 10:00:32 GMT 48.801361 16.438856 16,500 143 361 -1344
2022-06-22 10:00:29 GMT 48.810471 16.428717 16,625 143 364 -1344
2022-06-22 10:00:26 GMT 48.810471 16.428717 16,625 143 364 -1344
2022-06-22 10:00:23 GMT 48.815144 16.423475 16,700 143 364 -1344
2022-06-22 10:00:20 GMT 48.821274 16.416674 16,775 143 364 -1344
2022-06-22 10:00:17 GMT 48.821274 16.416674 16,775 143 365 -1344
2022-06-22 10:00:16 GMT 48.827152 16.410105 16,825 143 366 -1344
2022-06-22 10:00:14 GMT 48.830154 16.406742 16,925 143 367 -1344
2022-06-22 10:00:11 GMT 48.830154 16.406742 16,925 143 369 -1344
2022-06-22 10:00:08 GMT 48.834274 16.402155 17,025 143 369 -1344
2022-06-22 10:00:05 GMT 48.837845 16.398151 17,025 143 370 -1344
2022-06-22 10:00:03 GMT 48.843121 16.392324 17,125 143 372 -1344
2022-06-22 10:00:00 GMT 48.845032 16.390123 17,150 143 374 -1344
2022-06-22 09:59:57 GMT 48.850067 16.384560 17,225 143 374 -1344
2022-06-22 09:59:54 GMT 48.855827 16.378084 17,325 143 376 -1344
2022-06-22 09:59:53 GMT 48.855827 16.378084 17,325 143 376 -1344
2022-06-22 09:59:52 GMT 48.858444 16.375193 17,375 143 377 -1344
2022-06-22 09:59:50 GMT 48.859833 16.373604 17,375 143 377 -1344
2022-06-22 09:59:49 GMT 48.863186 16.369846 17,425 143 379 -1344
2022-06-22 09:59:45 GMT 48.866180 16.366529 17,550 143 379 -1344
2022-06-22 09:59:42 GMT 48.870255 16.361954 17,550 143 380 -1344
2022-06-22 09:59:41 GMT 48.872543 16.359417 17,575 143 381 -1344
2022-06-22 09:59:38 GMT 48.875931 16.355614 17,625 143 382 -1344
2022-06-22 09:59:36 GMT 48.879959 16.351107 17,700 143 384 -1344
2022-06-22 09:59:33 GMT 48.883667 16.347006 17,750 143 387 -1344
2022-06-22 09:59:31 GMT 48.891861 16.337797 17,825 143 387 -1344
2022-06-22 09:59:28 GMT 48.891861 16.337797 17,925 143 387 -1344
2022-06-22 09:59:23 GMT 48.897446 16.331537 18,000 143 390 -1344
2022-06-22 09:59:20 GMT 48.901245 16.327303 18,000 143 391 -1344
2022-06-22 09:59:17 GMT 48.906151 16.321781 18,100 143 394 -1344
2022-06-22 09:59:15 GMT 48.909851 16.317585 18,175 143 394 -1344
2022-06-22 09:59:12 GMT 48.916992 16.309628 18,250 143 396 -1344
2022-06-22 09:59:09 GMT 48.919048 16.307325 18,275 143 396 -1344
2022-06-22 09:59:08 GMT 48.919048 16.307325 18,275 143 396 -1344
2022-06-22 09:59:05 GMT 48.922585 16.303350 18,350 143 399 -1344
2022-06-22 09:59:04 GMT 48.929707 16.295326 18,400 143 399 -1344
2022-06-22 09:59:02 GMT 48.929707 16.295326 18,475 143 401 -1344
2022-06-22 09:58:59 GMT 48.932079 16.292652 18,475 143 401 -1344
2022-06-22 09:58:58 GMT 48.934204 16.290331 18,500 143 402 -1344
2022-06-22 09:58:56 GMT 48.936272 16.287954 18,525 143 402 -1344
2022-06-22 09:58:55 GMT 48.938690 16.285280 18,575 143 404 -1344
2022-06-22 09:58:53 GMT 48.941067 16.282606 18,600 143 405 -1344
2022-06-22 09:58:52 GMT 48.944698 16.278559 18,650 143 405 -1344
2022-06-22 09:58:51 GMT 48.950703 16.271765 18,750 143 406 -1344
2022-06-22 09:58:47 GMT 48.950703 16.271765 18,750 143 409 -1344
2022-06-22 09:58:46 GMT 48.952240 16.270048 18,775 143 409 -1344
2022-06-22 09:58:45 GMT 48.953773 16.268368 18,800 143 409 -1344
2022-06-22 09:58:43 GMT 48.957092 16.264555 18,850 143 411 -1344
2022-06-22 09:58:41 GMT 48.959564 16.261808 18,875 143 411 -1344
2022-06-22 09:58:39 GMT 48.962898 16.258032 18,925 143 413 -1344
2022-06-22 09:58:38 GMT 48.965923 16.254635 18,975 143 415 -1344
2022-06-22 09:58:35 GMT 48.969044 16.251093 19,025 143 415 -1344
2022-06-22 09:58:33 GMT 48.972336 16.247372 19,050 143 416 -1344
2022-06-22 09:58:31 GMT 48.975540 16.243778 19,100 143 418 -1344
2022-06-22 09:58:29 GMT 48.980076 16.238733 19,175 143 419 -1344
2022-06-22 09:58:26 GMT 48.987713 16.230131 19,275 143 421 -1344
2022-06-22 09:58:23 GMT 48.987713 16.230131 19,275 143 423 -1280
2022-06-22 09:58:21 GMT 48.990829 16.226589 19,325 143 424 -1280
2022-06-22 09:58:20 GMT 48.992432 16.224834 19,350 144 424 -1344
2022-06-22 09:58:18 GMT 48.996555 16.220303 19,400 145 426 -1728
2022-06-22 09:58:17 GMT 48.997860 16.218927 19,425 145 426 -1728
2022-06-22 09:58:14 GMT 49.002594 16.213989 19,525 146 425 -2176
2022-06-22 09:58:13 GMT 49.005981 16.210609 19,625 148 425 -2240
2022-06-22 09:58:11 GMT 49.007683 16.208954 19,675 148 425 -2240
2022-06-22 09:58:08 GMT 49.012024 16.204834 19,750 148 425 -2240
2022-06-22 09:58:06 GMT 49.017975 16.199411 19,900 150 426 -2304
2022-06-22 09:58:03 GMT 49.020485 16.197172 19,950 150 426 -2304
2022-06-22 09:58:02 GMT 49.023186 16.194933 20,000 151 425 -2304
2022-06-22 09:58:01 GMT 49.024933 16.193497 20,050 151 425 -2304
2022-06-22 09:57:58 GMT 49.028412 16.190680 20,225 154 426 -2304
2022-06-22 09:57:55 GMT 49.035370 16.185255 20,275 154 425 -2304
2022-06-22 09:57:52 GMT 49.039719 16.182087 20,450 156 426 -2304
2022-06-22 09:57:49 GMT 49.050976 16.174549 20,775 158 425 -2304
2022-06-22 09:57:46 GMT 49.050976 16.174549 20,675 157 425 -2368
2022-06-22 09:57:43 GMT 49.058533 16.169903 20,775 159 425 -2304
2022-06-22 09:57:40 GMT 49.069691 16.163780 21,500 163 425 -2304
2022-06-22 09:57:36 GMT 49.069691 16.163780 21,125 162 424 -2368
2022-06-22 09:57:33 GMT 49.076385 16.160538 21,200 163 424 -2368
2022-06-22 09:57:29 GMT 49.081787 16.158072 21,300 163 425 -2368
2022-06-22 09:57:26 GMT 49.088963 16.154818 21,500 163 425 -2304
2022-06-22 09:57:22 GMT 49.095383 16.151945 21,525 163 426 -2240
2022-06-22 09:57:19 GMT 49.101810 16.149035 21,650 163 426 -2304
2022-06-22 09:57:16 GMT 49.106689 16.146805 21,825 163 427 -2304
2022-06-22 09:57:13 GMT 49.112778 16.144127 21,975 163 428 -2240
2022-06-22 09:57:10 GMT 49.120758 16.140507 22,075 163 429 -2304
2022-06-22 09:57:08 GMT 49.128616 16.136944 22,100 163 429 -2304
2022-06-22 09:57:05 GMT 49.133286 16.134830 22,300 163 430 -2368
2022-06-22 09:57:02 GMT 49.133286 16.134830 22,325 163 430 -2368
2022-06-22 09:56:59 GMT 49.145508 16.129337 22,475 163 431 -2368
2022-06-22 09:56:56 GMT 49.145508 16.129337 23,150 163 433 -2368
2022-06-22 09:56:53 GMT 49.151249 16.126701 22,800 163 433 -2368
2022-06-22 09:56:49 GMT 49.160065 16.122719 22,825 163 433 -2368
2022-06-22 09:56:46 GMT 49.170868 16.117859 23,325 163 436 -2304
2022-06-22 09:56:43 GMT 49.170868 16.117859 23,075 163 434 -2368
2022-06-22 09:56:40 GMT 49.176224 16.115463 23,400 163 436 -2304
2022-06-22 09:56:38 GMT 49.180344 16.113619 23,250 163 436 -2304
2022-06-22 09:56:35 GMT 49.183960 16.112015 23,325 163 436 -2304
2022-06-22 09:56:32 GMT 49.190540 16.108994 23,650 163 437 -2304
2022-06-22 09:56:29 GMT 49.195587 16.106731 23,550 163 437 -2304
2022-06-22 09:56:27 GMT 49.200211 16.104618 23,675 163 439 -2304
2022-06-22 09:56:24 GMT 49.207066 16.101547 23,825 163 439 -2304
2022-06-22 09:56:21 GMT 49.211487 16.099524 24,075 163 440 -2368
2022-06-22 09:56:18 GMT 49.226715 16.092648 24,050 163 441 -2304
2022-06-22 09:56:14 GMT 49.226715 16.092648 24,150 163 442 -2240
2022-06-22 09:56:11 GMT 49.233322 16.089693 24,275 163 443 -2304
2022-06-22 09:56:07 GMT 49.249149 16.082539 24,525 163 444 -2368
2022-06-22 09:56:03 GMT 49.249149 16.082539 24,600 163 445 -2368
2022-06-22 09:56:00 GMT 49.253059 16.080732 24,750 163 446 -2304
2022-06-22 09:55:57 GMT 49.259392 16.077913 24,950 163 447 -1984
2022-06-22 09:55:53 GMT 49.267303 16.074371 24,950 163 447 -2176
2022-06-22 09:55:49 GMT 49.281235 16.068068 25,100 163 448 -1984
2022-06-22 09:55:47 GMT 49.281235 16.068068 25,200 163 449 -1984
2022-06-22 09:55:44 GMT 49.285217 16.066236 25,350 163 450 -1984
2022-06-22 09:55:41 GMT 49.291183 16.063530 25,350 163 450 -1984
2022-06-22 09:55:38 GMT 49.297165 16.060814 25,450 163 451 -2048
2022-06-22 09:55:35 GMT 49.312225 16.054054 25,625 162 457 -1984
2022-06-22 09:55:32 GMT 49.312225 16.054054 25,725 163 455 -1984
2022-06-22 09:55:28 GMT 49.318039 16.051378 25,800 162 455 -1984
2022-06-22 09:55:25 GMT 49.323261 16.048929 25,925 162 457 -1984
2022-06-22 09:55:22 GMT 49.329300 16.045956 26,125 160 460 -1984
2022-06-22 09:55:19 GMT 49.336109 16.042353 26,100 160 460 -1984
2022-06-22 09:55:16 GMT 49.343369 16.038378 26,225 159 463 -1984
2022-06-22 09:55:13 GMT 49.350121 16.034401 26,325 158 464 -1984
2022-06-22 09:55:10 GMT 49.354935 16.031446 26,450 156 466 -2048
2022-06-22 09:55:07 GMT 49.360874 16.027607 26,575 154 470 -1984
2022-06-22 09:55:03 GMT 49.366837 16.023560 26,650 155 469 -1920
2022-06-22 09:55:00 GMT 49.374283 16.018211 26,725 154 470 -1984
2022-06-22 09:54:57 GMT 49.380379 16.013584 26,825 153 471 -1984
2022-06-22 09:54:54 GMT 49.384476 16.010405 26,950 151 472 -1216
2022-06-22 09:54:51 GMT 49.391411 16.004766 27,000 150 473 -832
2022-06-22 09:54:48 GMT 49.395927 16.000937 27,000 149 474 -128
2022-06-22 09:54:46 GMT 49.399048 15.998190 27,000 149 475 64
2022-06-22 09:54:43 GMT 49.408127 15.990022 27,000 148 475 64
2022-06-22 09:54:40 GMT 49.412979 15.985460 27,000 147 476 -64
2022-06-22 09:54:37 GMT 49.416687 15.981797 27,000 147 475 -64
2022-06-22 09:54:34 GMT 49.424057 15.974332 27,000 146 476 64
2022-06-22 09:54:31 GMT 49.433533 15.964580 27,000 146 476 64
2022-06-22 09:54:28 GMT 49.433533 15.964580 27,000 146 476 0
2022-06-22 09:54:26 GMT 49.436104 15.961947 27,000 146 476 -64
2022-06-22 09:54:23 GMT 49.443413 15.954450 27,000 146 475 64
2022-06-22 09:54:20 GMT 49.448090 15.949691 27,000 146 475 64
2022-06-22 09:54:17 GMT 49.453651 15.943983 27,000 146 475 0
2022-06-22 09:54:14 GMT 49.467041 15.930176 27,000 146 474 0
2022-06-22 09:54:10 GMT 49.467041 15.930176 27,000 146 474 64
2022-06-22 09:54:07 GMT 49.472214 15.924827 27,000 146 473 64
2022-06-22 09:54:04 GMT 49.477295 15.919623 27,000 146 473 64
2022-06-22 09:54:01 GMT 49.482048 15.914736 27,000 146 473 0
2022-06-22 09:53:58 GMT 49.488922 15.907625 27,000 146 473 0
2022-06-22 09:53:55 GMT 49.493317 15.903144 27,000 146 473 64
2022-06-22 09:53:52 GMT 49.497971 15.898256 27,000 146 473 64
2022-06-22 09:53:49 GMT 49.504166 15.891868 27,000 146 473 -64
2022-06-22 09:53:46 GMT 49.509563 15.886305 27,000 146 473 0
2022-06-22 09:53:42 GMT 49.518677 15.876907 27,000 146 473 64
2022-06-22 09:53:39 GMT 49.521946 15.873537 27,000 146 473 0
2022-06-22 09:53:36 GMT 49.528152 15.867149 27,000 146 472 0
2022-06-22 09:53:33 GMT 49.535866 15.859210 27,000 146 472 0
2022-06-22 09:53:30 GMT 49.544128 15.850669 27,000 146 472 -64
2022-06-22 09:53:27 GMT 49.544128 15.850669 27,000 146 472 -64
2022-06-22 09:53:24 GMT 49.549644 15.844958 27,000 146 472 0
2022-06-22 09:53:21 GMT 49.554932 15.839539 27,000 146 472 -64
2022-06-22 09:53:18 GMT 49.561932 15.832264 27,000 146 472 64
2022-06-22 09:53:15 GMT 49.565872 15.828191 27,000 146 472 64
2022-06-22 09:53:13 GMT 49.569489 15.824432 27,000 146 472 -64
2022-06-22 09:53:10 GMT 49.579948 15.813632 27,000 146 472 -64
2022-06-22 09:53:07 GMT 49.579948 15.813632 27,000 146 472 -64
2022-06-22 09:53:04 GMT 49.588001 15.805243 27,000 146 472 -64
2022-06-22 09:53:01 GMT 49.593430 15.799641 27,000 146 473 0
2022-06-22 09:52:58 GMT 49.596954 15.795955 27,000 146 473 0
2022-06-22 09:52:55 GMT 49.601784 15.790991 27,000 146 473 0
2022-06-22 09:52:52 GMT 49.609268 15.783234 27,000 146 473 0
2022-06-22 09:52:49 GMT 49.614487 15.777813 27,000 146 473 0
2022-06-22 09:52:46 GMT 49.620590 15.771468 27,000 146 473 -64
2022-06-22 09:52:43 GMT 49.629730 15.761984 27,000 146 473 -64
2022-06-22 09:52:40 GMT 49.635906 15.755582 27,000 146 473 64
2022-06-22 09:52:37 GMT 49.639206 15.752154 27,000 146 473 64
2022-06-22 09:52:34 GMT 49.647720 15.743264 27,000 146 473 64
2022-06-22 09:52:31 GMT 49.647720 15.743264 27,000 146 473 64
2022-06-22 09:52:28 GMT 49.651035 15.739845 27,000 146 473 64
2022-06-22 09:52:25 GMT 49.654667 15.736059 27,000 145 473 64
2022-06-22 09:52:22 GMT 49.661880 15.728562 27,000 145 473 -64
2022-06-22 09:52:19 GMT 49.668823 15.721363 27,000 145 473 -64
2022-06-22 09:52:15 GMT 49.680405 15.709293 27,000 145 471 0
2022-06-22 09:52:12 GMT 49.680405 15.709293 27,000 146 472 0
2022-06-22 09:52:09 GMT 49.684460 15.705105 27,000 145 471 -64
2022-06-22 09:52:06 GMT 49.690929 15.698349 27,000 145 471 0
2022-06-22 09:52:04 GMT 49.695168 15.693970 27,000 145 471 64
2022-06-22 09:52:00 GMT 49.703476 15.685296 27,000 145 470 -64
2022-06-22 09:51:57 GMT 49.706848 15.681796 27,000 145 470 0
2022-06-22 09:51:54 GMT 49.711926 15.676525 27,000 145 470 0
2022-06-22 09:51:51 GMT 49.718719 15.669395 27,000 146 470 0
2022-06-22 09:51:48 GMT 49.724533 15.663324 27,000 146 470 0
2022-06-22 09:51:45 GMT 49.729893 15.657745 27,000 146 470 64
2022-06-22 09:51:42 GMT 49.734318 15.653142 27,000 146 470 64
2022-06-22 09:51:39 GMT 49.741390 15.645793 27,000 145 470 0
2022-06-22 09:51:36 GMT 49.745117 15.641859 27,000 145 470 0
2022-06-22 09:51:34 GMT 49.750488 15.636219 27,000 145 470 0
2022-06-22 09:51:31 GMT 49.754837 15.631738 27,000 145 469 0
2022-06-22 09:51:28 GMT 49.759872 15.626462 27,000 145 469 0
2022-06-22 09:51:25 GMT 49.764175 15.621980 27,000 145 469 0
2022-06-22 09:51:22 GMT 49.776585 15.608974 27,000 145 470 0
2022-06-22 09:51:19 GMT 49.776585 15.608974 27,000 145 470 0
2022-06-22 09:51:16 GMT 49.782497 15.602739 27,000 145 472 -64
2022-06-22 09:51:12 GMT 49.788132 15.596949 27,000 145 470 0
2022-06-22 09:51:09 GMT 49.799423 15.585046 27,000 145 470 -64
2022-06-22 09:51:06 GMT 49.799423 15.585046 27,000 145 472 0
2022-06-22 09:51:04 GMT 49.804504 15.579770 27,000 145 472 0
2022-06-22 09:51:01 GMT 49.808121 15.576011 27,000 145 472 0
2022-06-22 09:50:58 GMT 49.818855 15.564732 27,000 145 472 -64
2022-06-22 09:50:55 GMT 49.818855 15.564732 27,000 145 472 -64
2022-06-22 09:50:52 GMT 49.829422 15.553671 27,000 145 471 64
2022-06-22 09:50:49 GMT 49.829422 15.553671 27,025 145 472 64
2022-06-22 09:50:46 GMT 49.843506 15.538860 27,000 145 471 128
2022-06-22 09:50:43 GMT 49.847626 15.534596 27,000 145 470 64
2022-06-22 09:50:40 GMT 49.847626 15.534596 27,000 145 470 0
2022-06-22 09:50:37 GMT 49.852280 15.529620 27,000 145 470 0
2022-06-22 09:50:34 GMT 49.857494 15.524201 27,000 145 469 64
2022-06-22 09:50:31 GMT 49.862915 15.518550 27,000 145 468 64
2022-06-22 09:50:26 GMT 49.873135 15.507796 27,000 145 468 64
2022-06-22 09:50:23 GMT 49.877556 15.503119 27,000 145 468 -64
2022-06-22 09:50:20 GMT 49.881142 15.499334 27,000 145 468 0
2022-06-22 09:50:16 GMT 49.889057 15.491020 27,000 145 468 0
2022-06-22 09:50:13 GMT 49.894409 15.485374 27,000 145 468 0
2022-06-22 09:50:10 GMT 49.899399 15.480098 27,000 145 468 -64
2022-06-22 09:50:07 GMT 49.906235 15.472981 27,000 145 469 0
2022-06-22 09:50:04 GMT 49.910889 15.468027 27,000 145 469 -64
2022-06-22 09:50:01 GMT 49.916801 15.461846 27,000 145 469 0
2022-06-22 09:49:58 GMT 49.921268 15.457096 27,000 145 469 0
2022-06-22 09:49:55 GMT 49.927368 15.450680 27,000 145 469 64
2022-06-22 09:49:52 GMT 49.933468 15.444253 27,000 145 468 0
2022-06-22 09:49:49 GMT 49.938126 15.439333 27,000 145 467 64
2022-06-22 09:49:46 GMT 49.949249 15.427626 27,000 145 467 64
2022-06-22 09:49:43 GMT 49.949249 15.427626 27,000 145 467 64
2022-06-22 09:49:39 GMT 49.956024 15.420468 27,000 145 468 -64
2022-06-22 09:49:36 GMT 49.961399 15.414783 27,000 145 467 -64
2022-06-22 09:49:33 GMT 49.966736 15.409193 27,000 145 467 64
2022-06-22 09:49:30 GMT 49.971634 15.403988 27,000 145 468 -64
2022-06-22 09:49:27 GMT 49.977085 15.398230 27,000 145 468 -64
2022-06-22 09:49:24 GMT 49.982021 15.393033 27,000 145 468 -64
2022-06-22 09:49:21 GMT 49.987381 15.387364 27,000 145 468 64
2022-06-22 09:49:18 GMT 49.992462 15.381944 27,000 145 468 -64
2022-06-22 09:49:15 GMT 50.004272 15.369502 27,000 145 468 0
2022-06-22 09:49:12 GMT 50.004272 15.369502 27,000 145 468 64
2022-06-22 09:49:09 GMT 50.009300 15.364157 27,000 145 468 64
2022-06-22 09:49:06 GMT 50.014664 15.358525 27,000 145 468 64
2022-06-22 09:49:03 GMT 50.019962 15.352874 27,000 145 471 -64
2022-06-22 09:49:00 GMT 50.024597 15.347973 27,000 145 469 0
2022-06-22 09:48:57 GMT 50.030411 15.341829 27,000 145 469 0
2022-06-22 09:48:54 GMT 50.036133 15.335758 27,000 145 469 0
2022-06-22 09:48:51 GMT 50.040630 15.330976 27,000 145 469 0
2022-06-22 09:48:48 GMT 50.046112 15.325205 27,000 145 469 0
2022-06-22 09:48:45 GMT 50.052128 15.318801 27,000 145 469 0
2022-06-22 09:48:42 GMT 50.057602 15.312990 27,000 145 469 0
2022-06-22 09:48:39 GMT 50.062836 15.307444 27,000 145 471 0
2022-06-22 09:48:36 GMT 50.068268 15.301642 27,000 145 470 64
2022-06-22 09:48:33 GMT 50.075077 15.294453 27,000 145 471 0
2022-06-22 09:48:30 GMT 50.078476 15.290800 27,000 145 471 0
2022-06-22 09:48:26 GMT 50.092209 15.276267 27,000 145 471 -64
2022-06-22 09:48:23 GMT 50.092209 15.276267 27,000 145 471 -64
2022-06-22 09:48:20 GMT 50.096169 15.272035 27,000 145 471 64
2022-06-22 09:48:17 GMT 50.103699 15.263985 27,000 145 470 64
2022-06-22 09:48:13 GMT 50.109108 15.258302 27,000 145 470 64
2022-06-22 09:48:11 GMT 50.119118 15.247613 27,000 145 470 0
2022-06-22 09:48:08 GMT 50.119118 15.247613 27,000 145 469 0
2022-06-22 09:48:05 GMT 50.124798 15.241600 27,000 145 467 0
2022-06-22 09:48:02 GMT 50.129517 15.236519 27,000 145 468 -64
2022-06-22 09:47:59 GMT 50.134151 15.231579 27,000 145 469 -64
2022-06-22 09:47:56 GMT 50.139877 15.225492 27,000 145 467 0
2022-06-22 09:47:53 GMT 50.144859 15.220221 27,000 145 467 64
2022-06-22 09:47:50 GMT 50.155197 15.209198 27,000 145 467 64
2022-06-22 09:47:47 GMT 50.155197 15.209198 27,000 145 466 0
2022-06-22 09:47:44 GMT 50.161247 15.202703 27,000 145 466 0
2022-06-22 09:47:41 GMT 50.168369 15.195131 27,000 145 466 0
2022-06-22 09:47:38 GMT 50.172272 15.190984 27,000 145 466 64
2022-06-22 09:47:35 GMT 50.178284 15.184590 27,000 145 466 0
2022-06-22 09:47:29 GMT 50.188660 15.173420 27,000 145 467 0
2022-06-22 09:47:25 GMT 50.195114 15.166554 27,000 145 468 -64
2022-06-22 09:47:22 GMT 50.200836 15.160482 27,000 145 468 -64
2022-06-22 09:47:19 GMT 50.205002 15.156001 27,000 145 468 -64
2022-06-22 09:47:15 GMT 50.213654 15.146749 27,000 145 466 64
2022-06-22 09:47:12 GMT 50.217911 15.142196 27,000 145 466 64
2022-06-22 09:47:10 GMT 50.223255 15.136488 27,000 145 466 64
2022-06-22 09:47:06 GMT 50.230377 15.128916 27,000 145 466 64
2022-06-22 09:47:03 GMT 50.233913 15.125056 27,000 145 467 0
2022-06-22 09:47:00 GMT 50.239594 15.118969 27,000 145 466 -64
2022-06-22 09:46:57 GMT 50.244576 15.113699 27,000 145 466 0
2022-06-22 09:46:54 GMT 50.251698 15.106053 27,000 145 467 0
2022-06-22 09:46:51 GMT 50.257004 15.100347 27,000 145 467 64
2022-06-22 09:46:48 GMT 50.261993 15.094998 27,000 145 467 -64
2022-06-22 09:46:45 GMT 50.266594 15.090019 27,000 145 467 -64
2022-06-22 09:46:42 GMT 50.276463 15.079478 27,000 145 468 -64
2022-06-22 09:46:39 GMT 50.281906 15.073604 27,000 145 468 0
2022-06-22 09:46:36 GMT 50.287266 15.067823 27,000 145 468 -64
2022-06-22 09:46:33 GMT 50.294724 15.059871 27,000 145 468 0
2022-06-22 09:46:30 GMT 50.294724 15.059871 27,000 145 468 64
2022-06-22 09:46:27 GMT 50.299026 15.055245 27,000 145 468 0
2022-06-22 09:46:24 GMT 50.303284 15.050619 27,000 145 468 0
2022-06-22 09:46:21 GMT 50.307980 15.045628 27,000 145 468 0
2022-06-22 09:46:18 GMT 50.314041 15.039127 27,000 145 468 -64
2022-06-22 09:46:15 GMT 50.325066 15.027218 27,000 145 467 -64
2022-06-22 09:46:12 GMT 50.325066 15.027218 27,000 145 467 0
2022-06-22 09:46:09 GMT 50.332886 15.018830 27,000 145 467 64
2022-06-22 09:46:06 GMT 50.336422 15.014970 27,000 145 467 64
2022-06-22 09:46:03 GMT 50.341782 15.009276 27,000 145 467 0
2022-06-22 09:46:00 GMT 50.346291 15.004429 27,000 145 465 0
2022-06-22 09:45:57 GMT 50.354553 14.995543 27,000 145 465 64
2022-06-22 09:45:54 GMT 50.358124 14.991712 27,000 145 465 0
2022-06-22 09:45:51 GMT 50.360962 14.988604 27,000 145 465 0
2022-06-22 09:45:49 GMT 50.365517 14.983718 27,000 145 465 0
2022-06-22 09:45:46 GMT 50.370850 14.977979 27,000 145 464 0
2022-06-22 09:45:43 GMT 50.376831 14.971470 27,000 145 463 -64
2022-06-22 09:45:40 GMT 50.383209 14.964641 27,000 145 464 -64
2022-06-22 09:45:37 GMT 50.386917 14.960632 27,000 145 463 0
2022-06-22 09:45:34 GMT 50.393078 14.953951 27,000 145 462 -64
2022-06-22 09:45:31 GMT 50.396427 14.950388 27,000 145 462 -64
2022-06-22 09:45:28 GMT 50.402573 14.943719 27,000 145 462 0
2022-06-22 09:45:24 GMT 50.409622 14.936130 27,000 145 463 64
2022-06-22 09:45:21 GMT 50.414909 14.930420 27,000 145 462 0
2022-06-22 09:45:19 GMT 50.419846 14.925075 27,000 145 462 0
2022-06-22 09:45:16 GMT 50.424408 14.920084 27,000 145 462 0
2022-06-22 09:45:12 GMT 50.431808 14.912085 27,000 145 463 0
2022-06-22 09:45:08 GMT 50.439056 14.904255 27,000 145 462 -64
2022-06-22 09:45:04 GMT 50.444824 14.898039 27,000 145 462 0
2022-06-22 09:45:01 GMT 50.452942 14.889221 27,000 145 462 0
2022-06-22 09:44:58 GMT 50.455597 14.886400 27,000 145 462 64
2022-06-22 09:44:55 GMT 50.460670 14.880907 27,000 145 462 64
2022-06-22 09:44:51 GMT 50.469795 14.870960 27,000 145 462 0
2022-06-22 09:44:48 GMT 50.473331 14.867174 27,000 145 462 -64
2022-06-22 09:44:45 GMT 50.478561 14.861466 27,000 145 461 0
2022-06-22 09:44:42 GMT 50.484550 14.855000 27,000 145 461 64
2022-06-22 09:44:39 GMT 50.488953 14.850191 27,000 145 462 0
2022-06-22 09:44:36 GMT 50.493988 14.844770 27,000 145 461 0
2022-06-22 09:44:33 GMT 50.498886 14.839421 27,000 145 461 0
2022-06-22 09:44:30 GMT 50.505405 14.832360 27,000 145 461 0
2022-06-22 09:44:27 GMT 50.515732 14.821135 27,000 145 461 0
2022-06-22 09:44:24 GMT 50.515732 14.821135 27,000 145 461 0
2022-06-22 09:44:21 GMT 50.521912 14.814485 27,000 145 461 0
2022-06-22 09:44:18 GMT 50.527287 14.808605 27,000 145 461 0
2022-06-22 09:44:15 GMT 50.532871 14.802518 27,000 145 460 0
2022-06-22 09:44:12 GMT 50.536968 14.798064 27,000 145 460 0
2022-06-22 09:44:09 GMT 50.542744 14.791829 27,000 145 461 0
2022-06-22 09:44:05 GMT 50.547272 14.786875 27,000 145 461 64
2022-06-22 09:44:02 GMT 50.553215 14.780397 27,000 145 461 0
2022-06-22 09:43:59 GMT 50.559082 14.774009 27,000 145 461 0
2022-06-22 09:43:55 GMT 50.572769 14.759093 27,000 145 461 0
2022-06-22 09:43:52 GMT 50.572769 14.759093 27,000 145 461 0
2022-06-22 09:43:49 GMT 50.575516 14.756123 27,000 145 461 0
2022-06-22 09:43:46 GMT 50.580498 14.750630 27,000 145 462 0
2022-06-22 09:43:43 GMT 50.592461 14.737640 27,000 145 462 -64
2022-06-22 09:43:40 GMT 50.592461 14.737640 27,000 145 462 0
2022-06-22 09:43:37 GMT 50.599091 14.730425 27,000 145 461 0
2022-06-22 09:43:34 GMT 50.604378 14.724649 27,000 145 461 0
2022-06-22 09:43:31 GMT 50.608566 14.720047 27,000 145 461 64
2022-06-22 09:43:27 GMT 50.615551 14.712401 27,000 145 461 0
2022-06-22 09:43:24 GMT 50.620483 14.707056 27,000 145 461 0
2022-06-22 09:43:21 GMT 50.626968 14.699924 27,000 145 461 0
2022-06-22 09:43:17 GMT 50.633099 14.693249 27,000 145 461 0
2022-06-22 09:43:14 GMT 50.637543 14.688359 27,000 145 460 64
2022-06-22 09:43:11 GMT 50.644684 14.680553 27,000 145 460 64
2022-06-22 09:43:07 GMT 50.650650 14.674023 27,000 145 460 0
2022-06-22 09:43:03 GMT 50.655762 14.668483 27,000 145 460 0
2022-06-22 09:43:00 GMT 50.662811 14.660749 27,000 145 460 -64
2022-06-22 09:42:56 GMT 50.668854 14.654129 27,000 145 459 0
2022-06-22 09:42:53 GMT 50.676132 14.646112 27,000 145 459 0
2022-06-22 09:42:50 GMT 50.685516 14.635849 27,000 145 468 -64
2022-06-22 09:42:47 GMT 50.685516 14.635849 27,000 145 457 -64
2022-06-22 09:42:44 GMT 50.691422 14.629409 27,000 145 456 -64
2022-06-22 09:42:41 GMT 50.695587 14.624807 27,000 145 456 64
2022-06-22 09:42:38 GMT 50.705154 14.614340 27,000 145 456 64
2022-06-22 09:42:35 GMT 50.705154 14.614340 27,000 145 456 64
2022-06-22 09:42:32 GMT 50.711166 14.607773 27,000 145 456 64
2022-06-22 09:42:29 GMT 50.717407 14.600906 27,000 145 457 64
2022-06-22 09:42:26 GMT 50.721771 14.596079 27,000 144 458 0
2022-06-22 09:42:23 GMT 50.726299 14.591141 26,975 145 458 -64
2022-06-22 09:42:20 GMT 50.731613 14.585241 27,000 145 462 -64
2022-06-22 09:42:17 GMT 50.736771 14.579544 27,000 145 464 64
2022-06-22 09:42:14 GMT 50.743893 14.571762 27,000 145 466 0
2022-06-22 09:42:11 GMT 50.747292 14.568024 27,000 145 468 -64
2022-06-22 09:42:08 GMT 50.752365 14.562378 27,000 145 468 64
2022-06-22 09:42:05 GMT 50.759125 14.554955 27,000 145 468 64
2022-06-22 09:42:02 GMT 50.763680 14.549942 27,000 145 468 64
2022-06-22 09:41:59 GMT 50.770340 14.542558 27,000 145 467 -64
2022-06-22 09:41:56 GMT 50.774048 14.538475 27,000 145 467 -64
2022-06-22 09:41:53 GMT 50.779037 14.533056 27,000 145 467 -64
2022-06-22 09:41:50 GMT 50.784302 14.527130 27,000 145 467 0
2022-06-22 09:41:47 GMT 50.788925 14.522070 27,000 144 464 64
2022-06-22 09:41:43 GMT 50.805485 14.503784 27,000 144 466 0
2022-06-22 09:41:39 GMT 50.810417 14.498291 27,000 144 466 64
2022-06-22 09:41:36 GMT 50.810417 14.498291 27,000 144 465 64
2022-06-22 09:41:33 GMT 50.815212 14.492950 27,000 144 465 -64
2022-06-22 09:41:29 GMT 50.821682 14.485779 27,000 144 465 -64
2022-06-22 09:41:26 GMT 50.826618 14.480362 27,000 144 464 0
2022-06-22 09:41:23 GMT 50.832596 14.473745 27,000 144 464 -64
2022-06-22 09:41:20 GMT 50.837837 14.467850 27,000 144 464 0
2022-06-22 09:41:16 GMT 50.843079 14.462016 27,000 144 464 0
2022-06-22 09:41:13 GMT 50.850677 14.453554 27,000 144 464 64
2022-06-22 09:41:10 GMT 50.855026 14.448729 27,000 144 464 64
2022-06-22 09:41:07 GMT 50.861847 14.441009 27,000 144 463 64
2022-06-22 09:41:04 GMT 50.866882 14.435367 27,000 144 463 64
2022-06-22 09:41:01 GMT 50.870564 14.431229 27,000 144 463 -64
2022-06-22 09:40:58 GMT 50.874939 14.426346 27,000 144 464 0
2022-06-22 09:40:55 GMT 50.881924 14.418488 27,000 145 464 0
2022-06-22 09:40:52 GMT 50.886158 14.413757 27,000 145 463 64
2022-06-22 09:40:49 GMT 50.892490 14.406815 27,000 146 462 0
2022-06-22 09:40:46 GMT 50.897781 14.401146 27,000 146 460 -64
2022-06-22 09:40:42 GMT 50.904190 14.394465 27,000 147 458 -64
2022-06-22 09:40:39 GMT 50.908875 14.389725 27,000 147 458 -64
2022-06-22 09:40:36 GMT 50.922821 14.375907 25,525 152 447 1024
2022-06-22 09:40:33 GMT 50.922821 14.375907 26,975 152 432 1024
2022-06-22 09:40:30 GMT 50.931080 14.368134 26,975 149 451 768
2022-06-22 09:40:27 GMT 50.931080 14.368134 26,925 149 451 832
2022-06-22 09:40:24 GMT 50.938660 14.361135 26,875 150 450 1024
2022-06-22 09:40:21 GMT 50.947357 14.353415 26,500 152 445 1024
2022-06-22 09:40:18 GMT 50.947357 14.353415 26,800 152 447 1024
2022-06-22 09:40:15 GMT 50.954079 14.347534 26,750 151 447 1024
2022-06-22 09:40:11 GMT 50.960083 14.342499 26,675 152 446 1024
2022-06-22 09:40:08 GMT 50.965809 14.337692 26,600 152 446 1024
2022-06-22 09:40:05 GMT 50.971436 14.333075 26,550 152 445 1024
2022-06-22 09:40:02 GMT 50.982056 14.324341 26,525 152 445 1024
2022-06-22 09:39:59 GMT 50.982056 14.324341 26,500 152 445 1024
2022-06-22 09:39:56 GMT 50.988667 14.319000 26,400 152 444 960
2022-06-22 09:39:53 GMT 50.993042 14.315414 26,350 152 443 1024
2022-06-22 09:39:50 GMT 50.997665 14.311548 26,350 152 444 1024
2022-06-22 09:39:47 GMT 51.009056 14.302216 26,275 152 443 1024
2022-06-22 09:39:44 GMT 51.009056 14.302216 26,225 152 442 1024
2022-06-22 09:39:41 GMT 51.015572 14.296875 25,175 152 432 1024
2022-06-22 09:39:36 GMT 51.023071 14.290689 26,075 152 441 1024
2022-06-22 09:39:33 GMT 51.030003 14.284973 26,025 152 438 1024
2022-06-22 09:39:30 GMT 51.034332 14.281464 26,025 152 438 1024
2022-06-22 09:39:27 GMT 51.039047 14.277550 25,950 152 440 1024
2022-06-22 09:39:24 GMT 51.045227 14.272461 25,875 152 439 1024
2022-06-22 09:39:21 GMT 51.052094 14.266786 25,850 152 439 960
2022-06-22 09:39:18 GMT 51.056442 14.263223 25,800 152 438 1024
2022-06-22 09:39:15 GMT 51.063629 14.257359 25,750 152 438 1024
2022-06-22 09:39:11 GMT 51.074741 14.248199 25,675 152 436 1024
2022-06-22 09:39:08 GMT 51.074741 14.248199 25,625 152 436 960
2022-06-22 09:39:05 GMT 51.086193 14.238739 25,525 152 436 1024
2022-06-22 09:39:02 GMT 51.086193 14.238739 25,550 152 436 1024
2022-06-22 09:38:59 GMT 51.088985 14.236450 25,525 152 436 1024
2022-06-22 09:38:56 GMT 51.103325 14.224548 25,400 152 434 1024
2022-06-22 09:38:53 GMT 51.103325 14.224548 25,375 152 434 1024
2022-06-22 09:38:50 GMT 51.107254 14.221356 25,350 152 433 1024
2022-06-22 09:38:46 GMT 51.113937 14.215851 25,275 152 432 1024
2022-06-22 09:38:43 GMT 51.119522 14.211197 25,225 152 432 960
2022-06-22 09:38:39 GMT 51.125343 14.206390 25,175 152 432 1024
2022-06-22 09:38:35 GMT 51.132465 14.200516 24,900 152 431 1024
2022-06-22 09:38:32 GMT 51.139450 14.194717 25,050 152 431 1024
2022-06-22 09:38:29 GMT 51.142941 14.191818 24,975 152 430 1024
2022-06-22 09:38:26 GMT 51.149689 14.186245 24,950 152 430 1024
2022-06-22 09:38:23 GMT 51.154770 14.182013 24,875 152 430 960
2022-06-22 09:38:20 GMT 51.166218 14.172592 24,825 152 429 1024
2022-06-22 09:38:17 GMT 51.166218 14.172592 24,775 152 429 1024
2022-06-22 09:38:14 GMT 51.174129 14.166031 24,725 152 428 1024
2022-06-22 09:38:11 GMT 51.175735 14.164717 24,675 152 428 1024
2022-06-22 09:38:08 GMT 51.179398 14.161674 24,675 152 428 1024
2022-06-22 09:38:05 GMT 51.192032 14.151207 24,575 152 427 1024
2022-06-22 09:38:02 GMT 51.196930 14.147124 24,525 152 427 1024
2022-06-22 09:37:59 GMT 51.196930 14.147124 24,500 152 427 1024
2022-06-22 09:37:56 GMT 51.201454 14.143372 24,425 152 426 1024
2022-06-22 09:37:53 GMT 51.214417 14.132649 24,375 152 426 1024
2022-06-22 09:37:50 GMT 51.218536 14.129235 24,250 152 425 960
2022-06-22 09:37:47 GMT 51.218536 14.129235 24,275 152 425 1024
2022-06-22 09:37:44 GMT 51.223057 14.125443 24,225 152 424 960
2022-06-22 09:37:41 GMT 51.233185 14.117060 24,175 152 425 960
2022-06-22 09:37:38 GMT 51.233185 14.117060 24,125 152 424 960
2022-06-22 09:37:34 GMT 51.239365 14.111938 24,075 152 424 960
2022-06-22 09:37:31 GMT 51.245308 14.106979 24,025 152 424 576
2022-06-22 09:37:28 GMT 51.250534 14.102659 24,025 152 424 384
2022-06-22 09:37:25 GMT 51.255478 14.098502 23,975 152 424 576
2022-06-22 09:37:22 GMT 51.261063 14.093900 23,975 152 424 704
2022-06-22 09:37:19 GMT 51.267654 14.088364 23,900 152 423 960
2022-06-22 09:37:16 GMT 51.271454 14.085215 23,900 152 423 960
2022-06-22 09:37:13 GMT 51.276592 14.080963 23,825 152 423 960
2022-06-22 09:37:10 GMT 51.281799 14.076604 23,775 152 423 896
2022-06-22 09:37:07 GMT 51.286011 14.073115 23,725 152 423 960
2022-06-22 09:37:04 GMT 51.291908 14.068222 23,650 152 423 960
2022-06-22 09:37:01 GMT 51.297775 14.063242 23,650 152 423 960
2022-06-22 09:36:58 GMT 51.303177 14.058788 23,600 152 422 960
2022-06-22 09:36:55 GMT 51.307129 14.055481 23,525 152 422 960
2022-06-22 09:36:52 GMT 51.314392 14.049435 23,500 152 422 960
2022-06-22 09:36:49 GMT 51.316452 14.047728 23,500 152 422 960
2022-06-22 09:36:46 GMT 51.322540 14.042606 23,400 152 421 960
2022-06-22 09:36:43 GMT 51.328403 14.037781 23,300 152 421 1024
2022-06-22 09:36:40 GMT 51.333572 14.033401 23,300 152 420 1024
2022-06-22 09:36:37 GMT 51.339249 14.028724 23,250 152 420 960
2022-06-22 09:36:34 GMT 51.344418 14.024353 23,200 152 420 960
2022-06-22 09:36:31 GMT 51.353668 14.016625 22,800 152 418 960
2022-06-22 09:36:28 GMT 51.360535 14.010909 23,100 152 418 1024
2022-06-22 09:36:25 GMT 51.360535 14.010909 23,025 152 418 960
2022-06-22 09:36:21 GMT 51.372116 14.001184 22,975 152 418 960
2022-06-22 09:36:18 GMT 51.372116 14.001184 22,975 152 417 960
2022-06-22 09:36:14 GMT 51.383102 13.991980 22,900 152 417 960
2022-06-22 09:36:11 GMT 51.383102 13.991980 22,850 152 417 960
2022-06-22 09:36:08 GMT 51.392670 13.984037 22,800 152 416 960
2022-06-22 09:36:05 GMT 51.392670 13.984037 22,750 152 416 960
2022-06-22 09:36:02 GMT 51.400513 13.977432 22,675 152 415 1024
2022-06-22 09:35:59 GMT 51.404846 13.973793 22,650 152 415 1024
2022-06-22 09:35:56 GMT 51.415695 13.964662 22,600 152 414 960
2022-06-22 09:35:53 GMT 51.415695 13.964662 22,550 152 414 960
2022-06-22 09:35:50 GMT 51.419174 13.961767 22,500 152 413 960
2022-06-22 09:35:47 GMT 51.424255 13.957520 22,500 152 413 960
2022-06-22 09:35:44 GMT 51.434265 13.949127 22,400 152 411 960
2022-06-22 09:35:41 GMT 51.434265 13.949127 22,350 152 411 1024
2022-06-22 09:35:38 GMT 51.439011 13.945160 22,325 152 409 1024
2022-06-22 09:35:35 GMT 51.443760 13.941193 22,250 152 408 960
2022-06-22 09:35:32 GMT 51.448792 13.936900 22,225 152 406 960
2022-06-22 09:35:29 GMT 51.455475 13.931332 22,175 152 406 960
2022-06-22 09:35:25 GMT 51.460983 13.926697 22,125 152 405 1024
2022-06-22 09:35:22 GMT 51.466141 13.922424 22,050 152 404 1216
2022-06-22 09:35:19 GMT 51.469784 13.919296 21,950 152 403 1344
2022-06-22 09:35:16 GMT 51.476395 13.913803 21,925 152 403 1344
2022-06-22 09:35:13 GMT 51.481201 13.909731 21,850 152 403 1408
2022-06-22 09:35:10 GMT 51.485275 13.906316 21,800 152 402 1472
2022-06-22 09:35:07 GMT 51.491043 13.901417 21,700 152 402 1600
2022-06-22 09:35:04 GMT 51.496132 13.897171 21,575 152 401 1600
2022-06-22 09:35:01 GMT 51.505646 13.889168 21,575 152 401 1600
2022-06-22 09:34:58 GMT 51.505646 13.889168 21,475 152 401 1600
2022-06-22 09:34:55 GMT 51.509583 13.885828 21,375 152 399 1536
2022-06-22 09:34:52 GMT 51.515125 13.881149 21,300 152 399 1536
2022-06-22 09:34:49 GMT 51.525646 13.872299 21,200 152 399 1536
2022-06-22 09:34:46 GMT 51.525646 13.872299 21,175 152 399 1536
2022-06-22 09:34:43 GMT 51.529816 13.868755 21,100 152 399 1600
2022-06-22 09:34:40 GMT 51.541332 13.859100 21,025 152 398 1600
2022-06-22 09:34:37 GMT 51.541332 13.859100 20,950 152 398 1600
2022-06-22 09:34:33 GMT 51.547199 13.854141 20,825 152 397 1600
2022-06-22 09:34:30 GMT 51.551064 13.850861 20,750 152 397 1664
2022-06-22 09:34:27 GMT 51.555626 13.846970 20,650 152 397 1600
2022-06-22 09:34:24 GMT 51.559845 13.843442 20,575 152 397 1600
2022-06-22 09:34:21 GMT 51.565704 13.838468 20,500 152 396 1600
2022-06-22 09:34:18 GMT 51.572113 13.833123 20,450 152 396 1600
2022-06-22 09:34:14 GMT 51.584164 13.822937 20,225 152 395 1664
2022-06-22 09:34:09 GMT 51.584164 13.822937 20,175 152 394 1728
2022-06-22 09:34:06 GMT 51.590973 13.817163 20,100 152 394 1728
2022-06-22 09:34:03 GMT 51.595798 13.813095 20,025 152 394 1728
2022-06-22 09:33:59 GMT 51.602783 13.807144 19,900 152 393 1728
2022-06-22 09:33:56 GMT 51.606739 13.803787 19,850 152 393 1792
2022-06-22 09:33:53 GMT 51.611572 13.799719 19,750 152 393 1856
2022-06-22 09:33:50 GMT 51.616375 13.795624 19,600 152 393 1856
2022-06-22 09:33:47 GMT 51.620239 13.792343 19,550 152 393 1792
2022-06-22 09:33:44 GMT 51.625362 13.787994 19,500 152 393 1792
2022-06-22 09:33:41 GMT 51.630066 13.784056 19,400 152 392 1600
2022-06-22 09:33:38 GMT 51.634689 13.780122 19,350 152 392 1600
2022-06-22 09:33:35 GMT 51.646225 13.770323 19,200 152 391 1536
2022-06-22 09:33:31 GMT 51.646225 13.770323 19,100 152 391 1472
2022-06-22 09:33:28 GMT 51.651012 13.766251 19,050 152 390 1472
2022-06-22 09:33:25 GMT 51.655701 13.762306 18,975 152 389 1472
2022-06-22 09:33:22 GMT 51.660557 13.758163 18,900 152 389 1472
2022-06-22 09:33:19 GMT 51.665024 13.754349 18,825 152 387 1472
2022-06-22 09:33:16 GMT 51.674835 13.746049 18,750 152 387 1472
2022-06-22 09:33:13 GMT 51.684952 13.737438 18,600 152 386 1536
2022-06-22 09:33:09 GMT 51.684952 13.737438 18,550 152 385 1472
2022-06-22 09:33:05 GMT 51.687469 13.735286 18,475 152 384 1472
2022-06-22 09:33:02 GMT 51.692814 13.730774 18,425 152 384 1472
2022-06-22 09:32:59 GMT 51.695934 13.728104 18,400 152 383 1472
2022-06-22 09:32:56 GMT 51.701569 13.723297 18,275 152 382 1408
2022-06-22 09:32:53 GMT 51.705944 13.719635 18,225 152 382 1344
2022-06-22 09:32:50 GMT 51.709713 13.716431 18,125 152 381 1344
2022-06-22 09:32:47 GMT 51.714386 13.712422 18,125 152 380 1344
2022-06-22 09:32:44 GMT 51.721069 13.706781 17,800 152 376 1280
2022-06-22 09:32:41 GMT 51.725681 13.702850 17,950 152 377 1280
2022-06-22 09:32:38 GMT 51.730148 13.699036 17,900 152 376 1280
2022-06-22 09:32:35 GMT 51.735691 13.694305 17,475 152 372 1600
2022-06-22 09:32:31 GMT 51.743958 13.687258 17,625 152 374 1408
2022-06-22 09:32:28 GMT 51.743958 13.687258 17,675 152 373 1408
2022-06-22 09:32:25 GMT 51.754032 13.678741 17,600 152 372 1536
2022-06-22 09:32:22 GMT 51.754032 13.678741 17,450 152 372 1600
2022-06-22 09:32:19 GMT 51.757664 13.675613 17,450 152 371 1664
2022-06-22 09:32:16 GMT 51.762222 13.671743 17,375 152 370 1728
2022-06-22 09:32:13 GMT 51.768555 13.666306 17,175 152 369 1920
2022-06-22 09:32:10 GMT 51.773071 13.662464 17,150 152 369 2048
2022-06-22 09:32:07 GMT 51.780945 13.655709 16,950 152 369 2240
2022-06-22 09:32:04 GMT 51.780945 13.655709 16,950 152 369 2240
2022-06-22 09:32:01 GMT 51.785454 13.651886 16,875 152 369 2240
2022-06-22 09:31:58 GMT 51.790295 13.647766 16,725 152 369 2176
2022-06-22 09:31:55 GMT 51.794533 13.644104 16,575 152 369 2112
2022-06-22 09:31:52 GMT 51.805424 13.634796 16,500 151 370 2048
2022-06-22 09:31:49 GMT 51.805424 13.634796 16,400 152 369 1984
2022-06-22 09:31:45 GMT 51.809875 13.631064 16,275 152 369 1920
2022-06-22 09:31:42 GMT 51.815712 13.626022 16,225 151 370 1920
2022-06-22 09:31:39 GMT 51.818939 13.623270 16,125 152 369 1984
2022-06-22 09:31:35 GMT 51.825668 13.617554 15,975 152 369 1920
2022-06-22 09:31:32 GMT 51.829330 13.614436 15,925 152 369 1856
2022-06-22 09:31:29 GMT 51.833542 13.610799 15,825 152 368 1792
2022-06-22 09:31:26 GMT 51.837452 13.607483 15,750 152 368 1728
2022-06-22 09:31:22 GMT 51.844063 13.601837 15,525 152 367 1856
2022-06-22 09:31:18 GMT 51.852036 13.594987 15,450 152 366 1920
2022-06-22 09:31:14 GMT 51.855934 13.591690 15,350 151 365 1984
2022-06-22 09:31:11 GMT 51.860821 13.587494 15,300 152 364 1984
2022-06-22 09:31:08 GMT 51.870071 13.579547 15,050 152 365 1984
2022-06-22 09:31:05 GMT 51.870071 13.579547 15,025 152 365 1920
2022-06-22 09:31:02 GMT 51.878998 13.571901 14,950 152 365 1856
2022-06-22 09:31:00 GMT 51.878998 13.571901 14,875 152 364 1856
2022-06-22 09:30:57 GMT 51.881680 13.569565 14,800 152 364 1856
2022-06-22 09:30:52 GMT 51.890305 13.562177 14,450 152 363 1920
2022-06-22 09:30:49 GMT 51.894760 13.558384 14,525 152 362 1920
2022-06-22 09:30:45 GMT 51.900375 13.553543 14,400 152 362 1920
2022-06-22 09:30:42 GMT 51.904770 13.549752 14,325 151 361 1920
2022-06-22 09:30:39 GMT 51.908306 13.546692 14,225 152 361 2048
2022-06-22 09:30:36 GMT 51.912140 13.543396 14,050 152 360 1984
2022-06-22 09:30:33 GMT 51.916260 13.539886 13,975 152 360 1984
2022-06-22 09:30:30 GMT 51.922459 13.534607 13,825 152 360 1984
2022-06-22 09:30:27 GMT 51.926239 13.531342 13,775 151 359 1984
2022-06-22 09:30:24 GMT 51.931812 13.526524 13,700 152 358 1984
2022-06-22 09:30:19 GMT 51.937958 13.521194 13,500 152 357 2048
2022-06-22 09:30:16 GMT 51.941776 13.517970 13,475 152 357 2112
2022-06-22 09:30:13 GMT 51.946152 13.514175 13,250 152 357 2240
2022-06-22 09:30:10 GMT 51.951324 13.509674 13,250 152 357 2240
2022-06-22 09:30:08 GMT 51.954021 13.507377 13,175 152 357 2304
2022-06-22 09:30:05 GMT 51.957687 13.504257 13,075 151 357 2304
2022-06-22 09:30:02 GMT 51.962074 13.500471 12,950 151 357 2304
2022-06-22 09:29:59 GMT 51.967117 13.496094 12,775 151 357 2368
2022-06-22 09:29:56 GMT 51.971786 13.492126 12,700 151 357 2368
2022-06-22 09:29:52 GMT 51.978745 13.486099 12,500 151 357 2304
2022-06-22 09:29:49 GMT 51.986652 13.479283 11,950 151 354 1920
2022-06-22 09:29:46 GMT 51.986652 13.479283 12,300 151 355 2112
2022-06-22 09:29:43 GMT 51.991215 13.475359 12,200 151 350 1792
2022-06-22 09:29:39 GMT 51.996140 13.471069 12,100 151 354 1792
2022-06-22 09:29:36 GMT 52.001179 13.466727 12,000 151 353 1728
2022-06-22 09:29:33 GMT 52.009506 13.459549 11,850 151 350 1792
2022-06-22 09:29:30 GMT 52.011658 13.457718 11,775 151 350 1792
2022-06-22 09:29:25 GMT 52.015778 13.454132 11,700 151 348 1792
2022-06-22 09:29:21 GMT 52.022598 13.448257 11,500 151 346 1856
2022-06-22 09:29:18 GMT 52.025986 13.445282 11,475 151 345 1792
2022-06-22 09:29:15 GMT 52.029419 13.442383 11,425 151 344 1792
2022-06-22 09:29:12 GMT 52.035049 13.437500 11,250 151 344 1792
2022-06-22 09:29:09 GMT 52.042282 13.431244 11,150 151 340 1728
2022-06-22 09:29:04 GMT 52.051918 13.422860 11,025 152 340 1792
2022-06-22 09:29:00 GMT 52.051918 13.422860 10,925 151 340 1728
2022-06-22 09:28:57 GMT 52.056198 13.419189 10,850 151 337 1408
2022-06-22 09:28:54 GMT 52.058945 13.416824 10,775 151 336 1344
2022-06-22 09:28:51 GMT 52.064163 13.412266 10,700 151 334 1024
2022-06-22 09:28:48 GMT 52.066635 13.410110 10,650 151 331 704
2022-06-22 09:28:45 GMT 52.071796 13.405675 10,625 151 327 512
2022-06-22 09:28:40 GMT 52.078732 13.399632 10,600 151 324 512
2022-06-22 09:28:37 GMT 52.082611 13.396301 10,575 151 319 512
2022-06-22 09:28:34 GMT 52.086273 13.393097 10,550 151 317 576
2022-06-22 09:28:31 GMT 52.090233 13.389666 10,525 151 314 640
2022-06-22 09:28:28 GMT 52.094280 13.386213 10,475 151 307 1024
2022-06-22 09:28:25 GMT 52.097355 13.383545 10,425 151 305 1216
2022-06-22 09:28:22 GMT 52.105499 13.376482 10,325 151 302 1856
2022-06-22 09:28:19 GMT 52.105499 13.376482 10,300 151 301 1984
2022-06-22 09:28:17 GMT 52.108246 13.374050 10,200 151 300 2368
2022-06-22 09:28:14 GMT 52.115089 13.368086 10,075 151 300 2368
2022-06-22 09:28:11 GMT 52.115089 13.368086 9,150 151 286 1984
2022-06-22 09:28:08 GMT 52.118683 13.365021 9,900 151 299 2432
2022-06-22 09:28:05 GMT 52.123329 13.360944 9,600 151 298 2368
2022-06-22 09:28:02 GMT 52.127289 13.357492 9,600 151 298 2368
2022-06-22 09:27:59 GMT 52.129707 13.355373 9,450 151 297 2304
2022-06-22 09:27:57 GMT 52.132130 13.353254 9,375 151 296 2240
2022-06-22 09:27:54 GMT 52.136261 13.349686 9,300 151 296 2240
2022-06-22 09:27:51 GMT 52.139393 13.346976 9,200 151 296 2240
2022-06-22 09:27:48 GMT 52.142742 13.344073 9,000 151 293 2240
2022-06-22 09:27:44 GMT 52.147797 13.339691 8,925 151 293 2432
2022-06-22 09:27:41 GMT 52.150890 13.336932 8,625 151 292 2496
2022-06-22 09:27:38 GMT 52.156055 13.332458 8,700 151 292 2560
2022-06-22 09:27:35 GMT 52.158691 13.330154 8,225 151 291 2624
2022-06-22 09:27:32 GMT 52.166111 13.323669 8,375 151 289 2240
2022-06-22 09:27:29 GMT 52.166111 13.323669 8,300 151 289 2368
2022-06-22 09:27:25 GMT 52.172722 13.317941 8,125 151 289 2176
2022-06-22 09:27:23 GMT 52.172722 13.317941 8,100 151 288 2112
2022-06-22 09:27:19 GMT 52.177891 13.313389 7,925 151 284 2048
2022-06-22 09:27:17 GMT 52.180592 13.311035 7,850 151 285 2048
2022-06-22 09:27:14 GMT 52.183475 13.308446 7,750 151 283 2112
2022-06-22 09:27:11 GMT 52.186687 13.305620 7,675 151 283 2112
2022-06-22 09:27:08 GMT 52.189434 13.303188 7,600 151 281 2048
2022-06-22 09:27:06 GMT 52.195812 13.297459 7,250 151 279 1920
2022-06-22 09:27:03 GMT 52.195812 13.297459 7,425 151 278 1792
2022-06-22 09:26:59 GMT 52.200699 13.293065 7,250 150 275 1536
2022-06-22 09:26:57 GMT 52.202515 13.291417 7,250 150 273 1344
2022-06-22 09:26:54 GMT 52.206207 13.287964 7,175 150 268 1152
2022-06-22 09:26:51 GMT 52.208817 13.285599 7,125 150 266 960
2022-06-22 09:26:48 GMT 52.212059 13.282628 7,100 151 264 896
2022-06-22 09:26:45 GMT 52.215729 13.279495 7,050 153 258 768
2022-06-22 09:26:42 GMT 52.217834 13.277817 7,025 156 254 704
2022-06-22 09:26:38 GMT 52.223324 13.274702 6,975 166 246 896
2022-06-22 09:26:35 GMT 52.229050 13.273211 6,900 177 238 1152
2022-06-22 09:26:33 GMT 52.229050 13.273211 6,900 177 238 1152
2022-06-22 09:26:30 GMT 52.232300 13.273315 6,700 194 230 2496
2022-06-22 09:26:27 GMT 52.235104 13.273839 6,750 187 231 1856
2022-06-22 09:26:23 GMT 52.238453 13.275094 6,600 197 229 2688
2022-06-22 09:26:20 GMT 52.241665 13.276742 6,425 213 228 2560
2022-06-22 09:26:17 GMT 52.245159 13.279253 6,250 212 227 2560
2022-06-22 09:26:14 GMT 52.247498 13.281479 6,150 219 227 2432
2022-06-22 09:26:12 GMT 52.249237 13.283463 6,125 220 228 2432
2022-06-22 09:26:07 GMT 52.253349 13.289847 5,850 229 226 2560
2022-06-22 09:26:04 GMT 52.255817 13.294320 5,725 229 226 2560
2022-06-22 09:26:01 GMT 52.259262 13.300598 5,550 229 226 2432
2022-06-22 09:25:56 GMT 52.260498 13.302841 5,400 229 225 2368
2022-06-22 09:25:52 GMT 52.263683 13.308681 5,300 229 224 2368
2022-06-22 09:25:48 GMT 52.266312 13.313446 5,125 229 223 2176
2022-06-22 09:25:46 GMT 52.267960 13.316422 5,050 229 223 2304
2022-06-22 09:25:43 GMT 52.270432 13.320923 4,900 229 220 2624
2022-06-22 09:25:40 GMT 52.274067 13.327515 4,750 228 220 2624
2022-06-22 09:25:37 GMT 52.274067 13.327515 4,675 228 219 2688
2022-06-22 09:25:35 GMT 52.275742 13.330575 4,550 229 220 2880
2022-06-22 09:25:31 GMT 52.277802 13.334274 4,425 229 221 2816
2022-06-22 09:25:28 GMT 52.280228 13.338776 4,250 229 220 2752
2022-06-22 09:25:26 GMT 52.281143 13.340463 4,200 229 220 2688
2022-06-22 09:25:23 GMT 52.283840 13.345328 3,975 229 220 2816
2022-06-22 09:25:20 GMT 52.285675 13.348694 3,875 229 221 2880
2022-06-22 09:25:17 GMT 52.287846 13.352626 3,750 229 221 2816
2022-06-22 09:25:15 GMT 52.288925 13.354645 3,650 229 221 2880
2022-06-22 09:25:12 GMT 52.291397 13.359146 3,475 229 221 2880
2022-06-22 09:25:07 GMT 52.294411 13.364633 3,250 229 222 3136
2022-06-22 09:25:04 GMT 52.296181 13.367850 3,125 229 223 2880
2022-06-22 09:25:01 GMT 52.298492 13.372116 2,800 229 224 2944
2022-06-22 09:24:58 GMT 52.300735 13.376160 2,800 229 224 2880
2022-06-22 09:24:56 GMT 52.302109 13.378677 2,700 229 223 2688
2022-06-22 09:24:52 GMT 52.304855 13.383713 2,525 229 223 2880
2022-06-22 09:24:49 GMT 52.306652 13.386998 2,400 229 223 2496
2022-06-22 09:24:47 GMT 52.308609 13.390529 2,325 229 223 1792
2022-06-22 09:24:45 GMT 52.309959 13.393040 2,250 229 216 704
2022-06-22 09:24:42 GMT 52.311722 13.396301 2,175 229 217 768
2022-06-22 09:24:39 GMT 52.313450 13.399475 2,200 229 212 576
2022-06-22 09:24:37 GMT 52.316620 13.405304 2,150 229 206 768
2022-06-22 09:24:34 GMT 52.316620 13.405304 2,150 229 203 832
2022-06-22 09:24:30 GMT 52.319641 13.410873 2,075 229 192 1344
2022-06-22 09:24:27 GMT 52.321365 13.414071 2,025 229 188 1728
2022-06-22 09:24:26 GMT 52.322014 13.415248 2,000 229 188 1728
2022-06-22 09:24:24 GMT 52.323086 13.417132 1,950 229 186 1600
2022-06-22 09:24:22 GMT 52.324203 13.419250 1,900 229 185 1408
2022-06-22 09:24:21 GMT 52.324806 13.420271 1,875 229 185 1152
2022-06-22 09:24:20 GMT 52.326065 13.422546 1,850 228 183 768
2022-06-22 09:24:18 GMT 52.326672 13.423645 1,825 228 179 320
2022-06-22 09:24:17 GMT 52.327835 13.425764 1,825 228 179 320
2022-06-22 09:24:14 GMT 52.328857 13.427569 1,800 228 175 448
2022-06-22 09:24:11 GMT 52.330536 13.430629 1,750 229 170 1024
2022-06-22 09:24:09 GMT 52.331512 13.432434 1,725 228 168 1408
2022-06-22 09:24:08 GMT 52.331978 13.433297 1,700 228 167 1600
2022-06-22 09:24:07 GMT 52.332954 13.435024 1,625 229 164 1920
2022-06-22 09:24:05 GMT 52.333561 13.436201 1,600 230 164 2048
2022-06-22 09:24:01 GMT 52.335003 13.438947 1,475 231 164 2496
2022-06-22 09:23:59 GMT 52.335934 13.440752 1,400 231 163 2880
2022-06-22 09:23:57 GMT 52.336960 13.442793 1,300 232 163 2880
2022-06-22 09:23:56 GMT 52.337517 13.443891 1,250 232 163 2816
2022-06-22 09:23:55 GMT 52.338493 13.445932 1,150 234 162 2432
2022-06-22 09:23:53 GMT 52.338913 13.446952 1,125 235 163 2240
2022-06-22 09:23:51 GMT 52.339611 13.448521 1,050 237 163 1920
2022-06-22 09:23:50 GMT 52.340122 13.449777 1,025 237 162 1856
2022-06-22 09:23:48 GMT 52.340961 13.451817 975 239 161 1600
2022-06-22 09:23:45 GMT 52.342209 13.455429 875 243 160 1728
2022-06-22 09:23:41 GMT 52.344219 13.463039 675 249 158 2688
2022-06-22 09:23:38 GMT 52.344219 13.463039 675 249 158 2688
2022-06-22 09:23:35 GMT 52.354065 13.504767 475 249 163 2304
2022-06-22 09:22:42 GMT 52.354065 13.504767 0 250 6
2022-06-22 09:22:23 GMT 52.354580 13.505356 0 199 12
2022-06-22 09:22:18 GMT 52.354774 13.505516 0 216 14
2022-06-22 09:21:35 GMT 52.357430 13.506851 0 160 23
2022-06-22 09:21:27 GMT 52.358128 13.506432 0 157 22
2022-06-22 09:21:18 GMT 52.359024 13.505866 0 157 21
2022-06-22 09:21:06 GMT 52.359959 13.505268 0 157 20
2022-06-22 09:20:55 GMT 52.360886 13.504677 0 157 18
2022-06-22 09:20:33 GMT 52.362411 13.503708 0 157 15
2022-06-22 09:20:16 GMT 52.363461 13.503056 0 165 13
2022-06-22 09:19:46 GMT 52.364784 13.503276 0 202 8
2022-06-22 09:19:38 GMT 52.365074 13.503414 0 185 7
2022-06-22 09:19:27 GMT 52.365349 13.503418 0 165 5
2022-06-22 09:19:21 GMT 52.365437 13.503394 0 160 0
2022-06-22 09:19:17 GMT 52.365471 13.503374 0 160 0
2022-06-22 09:19:07 GMT 52.365482 13.503355 0 160 0
2022-06-22 09:18:57 GMT 52.365486 13.503361 0 160 0
2022-06-22 09:18:31 GMT 52.365482 13.503355 0 160 0
2022-06-22 09:18:06 GMT 52.365486 13.503361 0 160 0
2022-06-22 09:17:51 GMT 52.365482 13.503355 0 160 0
2022-06-22 09:17:46 GMT 52.365475 13.503361 0 160 0
2022-06-22 09:17:41 GMT 52.365482 13.503355 0 160 0
2022-06-22 09:17:35 GMT 52.365475 13.503361 0 160 0
2022-06-22 09:17:25 GMT 52.365482 13.503355 0 160 0
2022-06-22 09:17:19 GMT 52.365482 13.503355 0 160 0
2022-06-22 09:17:16 GMT 52.365482 13.503355 0 160 0
2022-06-22 09:17:05 GMT 52.365391 13.503414 0 157 3
2022-06-22 09:16:54 GMT 52.365292 13.503513 0 146 3
2022-06-22 09:16:44 GMT 52.365223 13.503647 0 120 3
2022-06-22 09:16:35 GMT 52.365204 13.503826 0 98 3

Making use of Plane Finder data

You are free to use the raw flight data, aircraft information and images provided in this report for your own purposes provided the data is correctly attributed to Plane Finder. We ask that you please credit Plane Finder and link to planefinder.net in close proximity to the content.

Optionally one of the following logos (no smaller then 150x24px) can be used and must link to planefinder.net

Embedding the Plane Finder map

You are welcome to embed the Plane Finder playback map on your website to offer visitors a more interactive experience. We suggest using the following HTML code:

<iframe src="//planefinder.net/data/report/OS226-OE-LWQ-7700-squawk-2022-06-22/map" width="800" height="600" seamless="seamless"></iframe>

Where our data comes from

Plane Finder has a global network of data feeds and antenna radars that receive data broadcast directly from aircraft. The primary technologies used are ADS-B and MLAT. We also show feeds from the FAA and a FLARM glider feed.

Click here to find out more about the Plane Finder network.

How we collect our data